Time,TemperatureF,DewpointF,PressureIn,WindDirection,WindDirectionDegrees,WindSpeedMPH,WindSpeedGustMPH,Humidity,HourlyPrecipIn,Conditions,Clouds,dailyrainin,SolarRadiationWatts/m^2,SoftwareType,DateUTC
2013-08-10 00:00:00,70.6,68.2,29.84,SSW,200,0.0,0.0,92,0.00,,,0.74,0.00,VWS V14.01,2013-08-10 04:00:00,
2013-08-10 00:01:00,70.6,68.2,29.84,SSW,200,0.0,0.0,92,0.00,,,0.00,0.00,VWS V14.01,2013-08-10 04:01:00,
2013-08-10 00:05:00,70.4,68.0,29.84,SSW,202,0.0,0.0,92,0.00,,,0.00,0.00,VWS V14.01,2013-08-10 04:05:00,
2013-08-10 00:06:00,70.4,68.0,29.84,SSW,202,0.0,0.0,92,0.00,,,0.00,0.00,VWS V14.01,2013-08-10 04:06:00,
2013-08-10 00:10:00,70.4,68.0,29.84,SSW,200,0.0,0.0,92,0.00,,,0.00,0.00,VWS V14.01,2013-08-10 04:10:00,
2013-08-10 00:11:00,70.4,68.0,29.84,SSW,200,0.0,0.0,92,0.00,,,0.00,0.00,VWS V14.01,2013-08-10 04:11:00,
2013-08-10 00:15:00,70.4,68.0,29.84,SSW,202,0.0,0.0,92,0.00,,,0.00,0.00,VWS V14.01,2013-08-10 04:15:00,
2013-08-10 00:16:00,70.4,68.0,29.84,SSW,202,0.0,0.0,92,0.00,,,0.00,0.00,VWS V14.01,2013-08-10 04:16:00,
2013-08-10 00:20:00,70.3,67.9,29.84,SSW,202,0.0,0.0,92,0.00,,,0.00,0.00,VWS V14.01,2013-08-10 04:20:00,
2013-08-10 00:21:00,70.4,68.0,29.84,SSW,202,0.0,0.0,92,0.00,,,0.00,0.00,VWS V14.01,2013-08-10 04:21:00,
2013-08-10 00:25:00,70.3,67.9,29.84,SSW,202,0.0,0.0,92,0.00,,,0.00,0.00,VWS V14.01,2013-08-10 04:25:00,
2013-08-10 00:26:00,70.3,67.9,29.84,SSW,195,0.0,0.0,92,0.00,,,0.00,0.00,VWS V14.01,2013-08-10 04:26:00,
2013-08-10 00:30:00,70.1,67.7,29.84,SSW,202,0.0,0.0,92,0.00,,,0.00,0.00,VWS V14.01,2013-08-10 04:30:00,
2013-08-10 00:31:00,70.1,67.7,29.84,SSW,202,0.0,0.0,92,0.00,,,0.00,0.00,VWS V14.01,2013-08-10 04:31:00,
2013-08-10 00:35:00,70.1,67.7,29.84,SSW,202,0.0,0.0,92,0.00,,,0.00,0.00,VWS V14.01,2013-08-10 04:35:00,
2013-08-10 00:36:00,70.1,67.7,29.84,SSW,202,0.0,0.0,92,0.00,,,0.00,0.00,VWS V14.01,2013-08-10 04:36:00,
2013-08-10 00:40:00,70.1,67.7,29.84,SSW,202,0.0,0.0,92,0.00,,,0.00,0.00,VWS V14.01,2013-08-10 04:40:00,
2013-08-10 00:41:00,70.1,67.7,29.84,SSW,202,0.0,0.0,92,0.00,,,0.00,0.00,VWS V14.01,2013-08-10 04:41:00,
2013-08-10 00:45:00,70.1,67.7,29.84,SSW,202,0.0,0.0,92,0.00,,,0.00,0.00,VWS V14.01,2013-08-10 04:45:00,
2013-08-10 00:46:00,70.1,67.7,29.84,SSW,202,0.0,0.0,92,0.00,,,0.00,0.00,VWS V14.01,2013-08-10 04:46:00,
2013-08-10 00:50:00,70.1,67.7,29.84,SSW,202,0.0,0.0,92,0.00,,,0.00,0.00,VWS V14.01,2013-08-10 04:50:00,
2013-08-10 00:51:00,69.9,67.5,29.84,SSW,195,0.0,0.0,92,0.00,,,0.00,0.00,VWS V14.01,2013-08-10 04:51:00,
2013-08-10 00:55:00,69.9,67.5,29.84,SSW,200,0.0,0.0,92,0.00,,,0.00,0.00,VWS V14.01,2013-08-10 04:55:00,
2013-08-10 00:56:00,69.9,67.5,29.84,SSW,202,0.0,0.0,92,0.00,,,0.00,0.00,VWS V14.01,2013-08-10 04:56:00,
2013-08-10 01:00:00,69.9,67.5,29.84,SSW,202,0.0,0.0,92,0.00,,,0.00,0.00,VWS V14.01,2013-08-10 05:00:00,
2013-08-10 01:01:00,69.9,67.5,29.84,SSW,202,0.0,0.0,92,0.00,,,0.00,0.00,VWS V14.01,2013-08-10 05:01:00,
2013-08-10 01:05:00,69.8,67.4,29.84,SSW,202,0.0,0.0,92,0.00,,,0.00,0.00,VWS V14.01,2013-08-10 05:05:00,
2013-08-10 01:06:00,69.8,67.4,29.84,SSW,202,0.0,0.0,92,0.00,,,0.00,0.00,VWS V14.01,2013-08-10 05:06:00,
2013-08-10 01:10:00,69.8,67.4,29.84,SSW,202,0.0,0.0,92,0.00,,,0.00,0.00,VWS V14.01,2013-08-10 05:10:00,
2013-08-10 01:11:00,69.8,67.4,29.84,SSW,202,0.0,0.0,92,0.00,,,0.00,0.00,VWS V14.01,2013-08-10 05:11:00,
2013-08-10 01:15:00,69.8,67.4,29.84,SSW,200,0.0,0.0,92,0.00,,,0.00,0.00,VWS V14.01,2013-08-10 05:15:00,
2013-08-10 01:16:00,69.8,67.4,29.84,SSW,202,0.0,0.0,92,0.00,,,0.00,0.00,VWS V14.01,2013-08-10 05:16:00,
2013-08-10 01:20:00,69.8,67.4,29.84,SSW,202,0.0,0.0,92,0.00,,,0.00,0.00,VWS V14.01,2013-08-10 05:20:00,
2013-08-10 01:21:00,69.8,67.4,29.84,SSW,202,0.0,0.0,92,0.00,,,0.00,0.00,VWS V14.01,2013-08-10 05:21:00,
2013-08-10 01:25:00,69.6,67.2,29.84,SSW,202,0.0,0.0,92,0.00,,,0.00,0.00,VWS V14.01,2013-08-10 05:25:00,
2013-08-10 01:26:00,69.8,67.4,29.84,SSW,200,0.0,0.0,92,0.00,,,0.00,0.00,VWS V14.01,2013-08-10 05:26:00,
2013-08-10 01:30:00,69.6,67.2,29.84,SSW,202,0.0,0.0,92,0.00,,,0.00,0.00,VWS V14.01,2013-08-10 05:30:00,
2013-08-10 01:31:00,69.6,67.2,29.84,SSW,200,0.0,0.0,92,0.00,,,0.00,0.00,VWS V14.01,2013-08-10 05:31:00,
2013-08-10 01:35:00,69.4,67.0,29.84,SSW,202,0.0,0.0,92,0.00,,,0.00,0.00,VWS V14.01,2013-08-10 05:35:00,
2013-08-10 01:36:00,69.4,67.0,29.84,SSW,202,0.0,0.0,92,0.00,,,0.00,0.00,VWS V14.01,2013-08-10 05:36:00,
2013-08-10 01:40:00,69.4,67.0,29.84,SSW,200,0.0,0.0,92,0.00,,,0.00,0.00,VWS V14.01,2013-08-10 05:40:00,
2013-08-10 01:41:00,69.4,67.0,29.84,SSW,202,0.0,0.0,92,0.00,,,0.00,0.00,VWS V14.01,2013-08-10 05:41:00,
2013-08-10 01:45:00,69.4,67.0,29.85,SSW,202,0.0,0.0,92,0.00,,,0.00,0.00,VWS V14.01,2013-08-10 05:45:00,
2013-08-10 01:46:00,69.4,67.0,29.85,SSW,202,0.0,0.0,92,0.00,,,0.00,0.00,VWS V14.01,2013-08-10 05:46:00,
2013-08-10 01:50:00,69.3,66.9,29.85,SSW,202,0.0,0.0,92,0.00,,,0.00,0.00,VWS V14.01,2013-08-10 05:50:00,
2013-08-10 01:51:00,69.3,66.9,29.85,SSW,200,0.0,0.0,92,0.00,,,0.00,0.00,VWS V14.01,2013-08-10 05:51:00,
2013-08-10 01:55:00,69.3,66.9,29.85,SSW,202,0.0,0.0,92,0.00,,,0.00,0.00,VWS V14.01,2013-08-10 05:55:00,
2013-08-10 01:56:00,69.3,66.9,29.85,SSW,202,0.0,0.0,92,0.00,,,0.00,0.00,VWS V14.01,2013-08-10 05:56:00,
2013-08-10 02:00:00,69.1,66.7,29.85,SSW,200,0.0,0.0,92,0.00,,,0.00,0.00,VWS V14.01,2013-08-10 06:00:00,
2013-08-10 02:01:00,69.1,66.7,29.85,SSW,202,0.0,0.0,92,0.00,,,0.00,0.00,VWS V14.01,2013-08-10 06:01:00,
2013-08-10 02:05:00,69.1,66.7,29.85,SSW,208,0.0,3.0,92,0.00,,,0.00,0.00,VWS V14.01,2013-08-10 06:05:00,
2013-08-10 02:06:00,69.1,66.7,29.85,SSW,208,0.0,3.0,92,0.00,,,0.00,0.00,VWS V14.01,2013-08-10 06:06:00,
2013-08-10 02:10:00,69.1,66.7,29.85,SSW,208,0.0,0.0,92,0.00,,,0.00,0.00,VWS V14.01,2013-08-10 06:10:00,
2013-08-10 02:11:00,69.1,66.7,29.85,SSW,208,0.0,0.0,92,0.00,,,0.00,0.00,VWS V14.01,2013-08-10 06:11:00,
2013-08-10 02:15:00,69.1,66.7,29.85,WSW,258,0.0,2.0,92,0.00,,,0.00,0.00,VWS V14.01,2013-08-10 06:15:00,
2013-08-10 02:16:00,69.1,66.7,29.85,WSW,258,0.0,0.0,92,0.00,,,0.00,0.00,VWS V14.01,2013-08-10 06:16:00,
2013-08-10 02:20:00,69.1,66.7,29.85,NNW,342,0.0,4.0,92,0.00,,,0.00,0.00,VWS V14.01,2013-08-10 06:20:00,
2013-08-10 02:21:00,69.1,66.7,29.85,NNW,342,0.0,2.0,92,0.00,,,0.00,0.00,VWS V14.01,2013-08-10 06:21:00,
2013-08-10 02:25:00,69.1,66.7,29.85,NNW,342,0.0,0.0,92,0.00,,,0.00,0.00,VWS V14.01,2013-08-10 06:25:00,
2013-08-10 02:26:00,69.1,66.7,29.85,NNW,342,0.0,0.0,92,0.00,,,0.00,0.00,VWS V14.01,2013-08-10 06:26:00,
2013-08-10 02:30:00,69.1,66.7,29.85,NNW,342,0.0,1.0,92,0.00,,,0.00,0.00,VWS V14.01,2013-08-10 06:30:00,
2013-08-10 02:31:00,69.1,66.7,29.85,NNW,342,0.0,1.0,92,0.00,,,0.00,0.00,VWS V14.01,2013-08-10 06:31:00,
2013-08-10 02:35:00,69.1,66.4,29.85,NNW,342,0.0,0.0,91,0.00,,,0.00,0.00,VWS V14.01,2013-08-10 06:35:00,
2013-08-10 02:36:00,69.1,66.4,29.85,NNW,342,0.0,0.0,91,0.00,,,0.00,0.00,VWS V14.01,2013-08-10 06:36:00,
2013-08-10 02:40:00,68.9,66.2,29.85,North,349,0.0,3.0,91,0.00,,,0.00,0.00,VWS V14.01,2013-08-10 06:40:00,
2013-08-10 02:41:00,68.9,66.2,29.85,NNW,347,0.0,3.0,91,0.00,,,0.00,0.00,VWS V14.01,2013-08-10 06:41:00,
2013-08-10 02:45:00,68.9,66.2,29.86,NNW,347,2.0,3.0,91,0.00,,,0.00,0.00,VWS V14.01,2013-08-10 06:45:00,
2013-08-10 02:46:00,68.9,66.2,29.86,NNW,347,0.0,5.0,91,0.00,,,0.00,0.00,VWS V14.01,2013-08-10 06:46:00,
2013-08-10 02:50:00,68.9,66.2,29.86,NNW,347,0.0,0.0,91,0.00,,,0.00,0.00,VWS V14.01,2013-08-10 06:50:00,
2013-08-10 02:51:00,68.9,66.2,29.86,NNW,347,0.0,1.0,91,0.00,,,0.00,0.00,VWS V14.01,2013-08-10 06:51:00,
2013-08-10 02:55:00,68.9,66.2,29.86,North,350,0.0,0.0,91,0.00,,,0.00,0.00,VWS V14.01,2013-08-10 06:55:00,
2013-08-10 02:56:00,68.9,66.2,29.86,North,350,0.0,0.0,91,0.00,,,0.00,0.00,VWS V14.01,2013-08-10 06:56:00,
2013-08-10 03:00:00,69.1,66.7,29.85,SSW,200,0.0,0.0,92,0.00,,-RA,0.00,0.00,VWS V14.01,2013-08-10 07:00:00,
2013-08-10 03:03:00,68.8,66.1,29.86,North,349,0.0,0.0,91,0.00,,,0.00,0.00,VWS V14.01,2013-08-10 07:03:00,
2013-08-10 03:05:00,69.1,66.7,29.85,SSW,208,0.0,3.0,92,0.00,,-RA,0.00,0.00,VWS V14.01,2013-08-10 07:05:00,
2013-08-10 03:08:00,68.8,66.1,29.86,North,349,0.0,2.0,91,0.00,,,0.00,0.00,VWS V14.01,2013-08-10 07:08:00,
2013-08-10 03:10:00,69.1,66.7,29.85,SSW,208,0.0,0.0,92,0.00,,-RA,0.00,0.00,VWS V14.01,2013-08-10 07:10:00,
2013-08-10 03:13:00,68.8,66.1,29.86,North,350,0.0,0.0,91,0.00,,,0.00,0.00,VWS V14.01,2013-08-10 07:13:00,
2013-08-10 03:15:00,69.1,66.7,29.85,WSW,258,0.0,2.0,92,0.00,,-RA,0.00,0.00,VWS V14.01,2013-08-10 07:15:00,
2013-08-10 03:18:00,68.6,65.6,29.87,North,350,0.0,4.0,90,0.00,,,0.00,0.00,VWS V14.01,2013-08-10 07:18:00,
2013-08-10 03:20:00,69.1,66.7,29.85,NNW,342,0.0,4.0,92,0.00,,-RA,0.00,0.00,VWS V14.01,2013-08-10 07:20:00,
2013-08-10 03:23:00,68.6,65.6,29.87,North,350,0.0,5.0,90,0.00,,,0.00,0.00,VWS V14.01,2013-08-10 07:23:00,
2013-08-10 03:25:00,69.1,66.7,29.85,NNW,342,0.0,0.0,92,0.00,,-RA,0.00,0.00,VWS V14.01,2013-08-10 07:25:00,
2013-08-10 03:28:00,68.6,65.6,29.87,NNW,336,0.0,3.0,90,0.00,,,0.00,0.00,VWS V14.01,2013-08-10 07:28:00,
2013-08-10 03:30:00,69.1,66.7,29.85,NNW,342,0.0,1.0,92,0.00,,-RA,0.00,0.00,VWS V14.01,2013-08-10 07:30:00,
2013-08-10 03:33:00,68.8,65.8,29.87,North,8,1.0,3.0,90,0.00,,,0.00,0.00,VWS V14.01,2013-08-10 07:33:00,
2013-08-10 03:35:00,69.1,66.4,29.85,NNW,342,0.0,0.0,91,0.00,,-RA,0.00,0.00,VWS V14.01,2013-08-10 07:35:00,
2013-08-10 03:38:00,68.4,65.0,29.87,NNW,335,1.0,4.0,89,0.00,,,0.00,0.00,VWS V14.01,2013-08-10 07:38:00,
2013-08-10 03:40:00,68.9,66.2,29.85,North,349,0.0,3.0,91,0.00,,-RA,0.00,0.00,VWS V14.01,2013-08-10 07:40:00,
2013-08-10 03:43:00,68.4,65.0,29.87,NNW,342,1.0,4.0,89,0.00,,,0.00,0.00,VWS V14.01,2013-08-10 07:43:00,
2013-08-10 03:45:00,68.9,66.2,29.86,NNW,347,2.0,3.0,91,0.00,,-RA,0.00,0.00,VWS V14.01,2013-08-10 07:45:00,
2013-08-10 03:48:00,68.4,65.0,29.87,North,350,1.0,6.0,89,0.00,,,0.00,0.00,VWS V14.01,2013-08-10 07:48:00,
2013-08-10 03:50:00,68.9,66.2,29.86,NNW,347,0.0,0.0,91,0.00,,-RA,0.00,0.00,VWS V14.01,2013-08-10 07:50:00,
2013-08-10 03:53:00,68.3,64.9,29.87,North,350,0.0,3.0,89,0.00,,,0.00,0.00,VWS V14.01,2013-08-10 07:53:00,
2013-08-10 03:55:00,68.9,66.2,29.86,North,350,0.0,0.0,91,0.00,,-RA,0.00,0.00,VWS V14.01,2013-08-10 07:55:00,
2013-08-10 03:58:00,68.3,64.9,29.87,North,356,0.0,6.0,89,0.00,,,0.00,0.00,VWS V14.01,2013-08-10 07:58:00,
2013-08-10 04:00:00,68.9,66.2,29.86,North,349,0.0,7.0,91,0.00,,-RA,0.00,0.00,VWS V14.01,2013-08-10 08:00:00,
2013-08-10 04:03:00,68.3,64.6,29.88,North,356,0.0,2.0,88,0.00,,,0.00,0.00,VWS V14.01,2013-08-10 08:03:00,
2013-08-10 04:05:00,68.8,66.1,29.86,North,349,2.0,3.0,91,0.00,,-RA,0.00,0.00,VWS V14.01,2013-08-10 08:05:00,
2013-08-10 04:08:00,68.1,64.4,29.88,North,356,0.0,0.0,88,0.00,,,0.00,0.00,VWS V14.01,2013-08-10 08:08:00,
2013-08-10 04:10:00,68.8,66.1,29.86,North,349,3.0,3.0,91,0.00,,-RA,0.00,0.00,VWS V14.01,2013-08-10 08:10:00,
2013-08-10 04:13:00,67.9,64.2,29.88,North,356,0.0,0.0,88,0.00,,,0.00,0.00,VWS V14.01,2013-08-10 08:13:00,
2013-08-10 04:15:00,68.8,66.1,29.87,North,350,0.0,3.0,91,0.00,,-RA,0.00,0.00,VWS V14.01,2013-08-10 08:15:00,
2013-08-10 04:18:00,67.9,64.2,29.89,North,356,0.0,0.0,88,0.00,,,0.00,0.00,VWS V14.01,2013-08-10 08:18:00,
2013-08-10 04:20:00,68.6,65.6,29.87,North,350,0.0,1.0,90,0.00,,-RA,0.00,0.00,VWS V14.01,2013-08-10 08:20:00,
2013-08-10 04:23:00,67.8,63.8,29.89,North,356,0.0,0.0,87,0.00,,,0.00,0.00,VWS V14.01,2013-08-10 08:23:00,
2013-08-10 04:25:00,68.6,65.6,29.87,North,350,2.0,5.0,90,0.00,,-RA,0.00,0.00,VWS V14.01,2013-08-10 08:25:00,
2013-08-10 04:28:00,67.6,63.6,29.89,North,356,0.0,3.0,87,0.00,,,0.00,0.00,VWS V14.01,2013-08-10 08:28:00,
2013-08-10 04:30:00,68.8,65.8,29.87,NE,34,1.0,3.0,90,0.00,,-RA,0.00,0.00,VWS V14.01,2013-08-10 08:30:00,
2013-08-10 04:33:00,67.8,63.8,29.89,North,0,0.0,1.0,87,0.00,,,0.00,0.00,VWS V14.01,2013-08-10 08:33:00,
2013-08-10 04:35:00,68.8,65.4,29.87,North,10,0.0,3.0,89,0.00,,-RA,0.00,0.00,VWS V14.01,2013-08-10 08:35:00,
2013-08-10 04:38:00,67.6,63.6,29.89,North,0,0.0,0.0,87,0.00,,,0.00,0.00,VWS V14.01,2013-08-10 08:38:00,
2013-08-10 04:40:00,68.4,65.0,29.87,NNW,342,0.0,3.0,89,0.00,,-RA,0.00,0.00,VWS V14.01,2013-08-10 08:40:00,
2013-08-10 04:43:00,67.3,63.0,29.89,NNW,340,0.0,5.0,86,0.00,,,0.00,0.00,VWS V14.01,2013-08-10 08:43:00,
2013-08-10 04:45:00,68.4,65.0,29.87,NNW,342,3.0,4.0,89,0.00,,-RA,0.00,0.00,VWS V14.01,2013-08-10 08:45:00,
2013-08-10 04:48:00,67.3,62.6,29.89,WNW,288,0.0,0.0,85,0.00,,,0.00,0.00,VWS V14.01,2013-08-10 08:48:00,
2013-08-10 04:50:00,68.4,65.0,29.87,North,350,3.0,3.0,89,0.00,,-RA,0.00,0.00,VWS V14.01,2013-08-10 08:50:00,
2013-08-10 04:53:00,67.1,62.1,29.89,WSW,251,0.0,5.0,84,0.00,,,0.00,0.00,VWS V14.01,2013-08-10 08:53:00,
2013-08-10 04:55:00,68.3,64.9,29.87,North,356,1.0,5.0,89,0.00,,-RA,0.00,0.00,VWS V14.01,2013-08-10 08:55:00,
2013-08-10 04:58:00,67.1,61.4,29.89,West,271,0.0,4.0,82,0.00,,,0.00,0.00,VWS V14.01,2013-08-10 08:58:00,
2013-08-10 05:00:00,68.3,64.9,29.88,North,356,0.0,2.0,89,0.00,,-RA,0.00,0.00,VWS V14.01,2013-08-10 09:00:00,
2013-08-10 05:03:00,66.9,61.2,29.90,West,271,0.0,0.0,82,0.00,,,0.00,0.00,VWS V14.01,2013-08-10 09:03:00,
2013-08-10 05:05:00,68.1,64.4,29.88,North,356,0.0,0.0,88,0.00,,-RA,0.00,0.00,VWS V14.01,2013-08-10 09:05:00,
2013-08-10 05:08:00,66.9,60.9,29.90,WNW,291,0.0,0.0,81,0.00,,,0.00,0.00,VWS V14.01,2013-08-10 09:08:00,
2013-08-10 05:10:00,68.1,64.4,29.88,North,356,0.0,0.0,88,0.00,,-RA,0.00,0.00,VWS V14.01,2013-08-10 09:10:00,
2013-08-10 05:13:00,66.9,60.9,29.90,WNW,291,0.0,0.0,81,0.00,,,0.00,0.00,VWS V14.01,2013-08-10 09:13:00,
2013-08-10 05:15:00,67.9,64.2,29.89,North,356,0.0,0.0,88,0.00,,-RA,0.00,0.00,VWS V14.01,2013-08-10 09:15:00,
2013-08-10 05:18:00,66.8,60.8,29.90,WNW,291,0.0,0.0,81,0.00,,,0.00,0.00,VWS V14.01,2013-08-10 09:18:00,
2013-08-10 05:20:00,67.8,64.1,29.89,North,356,0.0,0.0,88,0.00,,-RA,0.00,0.00,VWS V14.01,2013-08-10 09:20:00,
2013-08-10 05:23:00,66.6,60.6,29.90,WNW,294,0.0,1.0,81,0.00,,,0.00,0.00,VWS V14.01,2013-08-10 09:23:00,
2013-08-10 05:25:00,67.6,63.6,29.89,North,356,2.0,3.0,87,0.00,,-RA,0.00,0.00,VWS V14.01,2013-08-10 09:25:00,
2013-08-10 05:28:00,66.6,60.6,29.90,WNW,294,0.0,0.0,81,0.00,,,0.00,0.00,VWS V14.01,2013-08-10 09:28:00,
2013-08-10 05:30:00,67.6,63.6,29.89,North,356,0.0,0.0,87,0.00,,-RA,0.00,0.00,VWS V14.01,2013-08-10 09:30:00,
2013-08-10 05:33:00,66.6,60.6,29.90,WNW,294,0.0,0.0,81,0.00,,,0.00,0.00,VWS V14.01,2013-08-10 09:33:00,
2013-08-10 05:35:00,67.8,63.8,29.89,North,354,0.0,0.0,87,0.00,,-RA,0.00,0.00,VWS V14.01,2013-08-10 09:35:00,
2013-08-10 05:38:00,66.4,60.4,29.90,WNW,294,0.0,0.0,81,0.00,,,0.00,0.00,VWS V14.01,2013-08-10 09:38:00,
2013-08-10 05:40:00,67.6,63.6,29.89,North,357,0.0,0.0,87,0.00,,-RA,0.00,0.00,VWS V14.01,2013-08-10 09:40:00,
2013-08-10 05:43:00,66.1,60.5,29.90,WNW,294,0.0,0.0,82,0.00,,,0.00,0.00,VWS V14.01,2013-08-10 09:43:00,
2013-08-10 05:45:00,67.3,63.0,29.89,NNW,332,0.0,0.0,86,0.00,,-RA,0.00,0.00,VWS V14.01,2013-08-10 09:45:00,
2013-08-10 05:48:00,65.8,60.5,29.91,WNW,294,0.0,0.0,83,0.00,,,0.00,0.00,VWS V14.01,2013-08-10 09:48:00,
2013-08-10 05:50:00,67.1,62.5,29.89,WNW,289,0.0,0.0,85,0.00,,-RA,0.00,0.00,VWS V14.01,2013-08-10 09:50:00,
2013-08-10 05:53:00,65.6,60.6,29.91,WNW,294,0.0,0.0,84,0.00,,,0.00,0.00,VWS V14.01,2013-08-10 09:53:00,
2013-08-10 05:55:00,67.1,62.1,29.89,West,270,0.0,3.0,84,0.00,,-RA,0.00,0.00,VWS V14.01,2013-08-10 09:55:00,
2013-08-10 05:58:00,65.5,60.9,29.91,WNW,294,0.0,0.0,85,0.00,,,0.00,0.00,VWS V14.01,2013-08-10 09:58:00,
2013-08-10 06:00:00,67.1,61.4,29.90,West,271,0.0,1.0,82,0.00,,-RA,0.00,0.00,VWS V14.01,2013-08-10 10:00:00,
2013-08-10 06:03:00,65.3,61.0,29.91,WNW,294,0.0,0.0,86,0.00,,,0.00,0.00,VWS V14.01,2013-08-10 10:03:00,
2013-08-10 06:05:00,66.9,60.9,29.90,WNW,289,0.0,3.0,81,0.00,,-RA,0.00,0.00,VWS V14.01,2013-08-10 10:05:00,
2013-08-10 06:08:00,65.3,61.3,29.91,WNW,294,0.0,0.0,87,0.00,,,0.00,0.00,VWS V14.01,2013-08-10 10:08:00,
2013-08-10 06:10:00,66.9,60.9,29.90,WNW,289,0.0,0.0,81,0.00,,-RA,0.00,0.00,VWS V14.01,2013-08-10 10:10:00,
2013-08-10 06:13:00,65.2,61.6,29.91,WNW,294,0.0,0.0,88,0.00,,,0.00,7.00,VWS V14.01,2013-08-10 10:13:00,
2013-08-10 06:15:00,66.8,60.8,29.90,WNW,289,0.0,0.0,81,0.00,,-RA,0.00,0.00,VWS V14.01,2013-08-10 10:15:00,
2013-08-10 06:18:00,65.2,61.6,29.92,WNW,294,0.0,0.0,88,0.00,,,0.00,11.00,VWS V14.01,2013-08-10 10:18:00,
2013-08-10 06:20:00,66.8,60.8,29.90,WNW,291,0.0,0.0,81,0.00,,-RA,0.00,0.00,VWS V14.01,2013-08-10 10:20:00,
2013-08-10 06:23:00,65.2,61.6,29.92,WNW,295,1.0,1.0,88,0.00,,,0.00,14.00,VWS V14.01,2013-08-10 10:23:00,
2013-08-10 06:25:00,66.6,60.6,29.90,WNW,294,0.0,0.0,81,0.00,,-RA,0.00,0.00,VWS V14.01,2013-08-10 10:25:00,
2013-08-10 06:28:00,65.5,61.9,29.92,NNW,343,0.0,0.0,88,0.01,,,0.01,23.00,VWS V14.01,2013-08-10 10:28:00,
2013-08-10 06:30:00,66.6,60.6,29.90,WNW,294,0.0,0.0,81,0.00,,-RA,0.00,0.00,VWS V14.01,2013-08-10 10:30:00,
2013-08-10 06:33:00,65.6,62.0,29.92,NNW,330,1.0,1.0,88,0.01,,,0.01,25.00,VWS V14.01,2013-08-10 10:33:00,
2013-08-10 06:35:00,66.4,60.4,29.90,WNW,294,0.0,0.0,81,0.00,,-RA,0.00,0.00,VWS V14.01,2013-08-10 10:35:00,
2013-08-10 06:38:00,65.8,61.8,29.92,NNW,344,0.0,0.0,87,0.01,,,0.01,26.00,VWS V14.01,2013-08-10 10:38:00,
2013-08-10 06:40:00,66.4,60.4,29.90,WNW,294,0.0,0.0,81,0.00,,-RA,0.00,0.00,VWS V14.01,2013-08-10 10:40:00,
2013-08-10 06:43:00,66.0,62.0,29.92,NNW,337,0.0,0.0,87,0.01,,,0.01,32.00,VWS V14.01,2013-08-10 10:43:00,
2013-08-10 06:45:00,66.1,60.5,29.91,WNW,294,0.0,0.0,82,0.00,,-RA,0.00,0.00,VWS V14.01,2013-08-10 10:45:00,
2013-08-10 06:48:00,66.0,61.4,29.92,NNW,344,0.0,0.0,85,0.01,,,0.01,25.00,VWS V14.01,2013-08-10 10:48:00,
2013-08-10 06:50:00,65.8,60.8,29.91,WNW,294,0.0,0.0,84,0.00,,-RA,0.00,0.00,VWS V14.01,2013-08-10 10:50:00,
2013-08-10 06:53:00,65.8,60.8,29.92,NNW,332,0.0,0.0,84,0.01,,,0.01,26.00,VWS V14.01,2013-08-10 10:53:00,
2013-08-10 06:55:00,65.6,61.0,29.91,WNW,294,0.0,0.0,85,0.00,,-RA,0.00,0.00,VWS V14.01,2013-08-10 10:55:00,
2013-08-10 06:58:00,65.8,60.5,29.92,North,352,0.0,0.0,83,0.01,,,0.01,32.00,VWS V14.01,2013-08-10 10:58:00,
2013-08-10 07:00:00,65.5,61.2,29.91,WNW,294,0.0,0.0,86,0.00,,-RA,0.00,0.00,VWS V14.01,2013-08-10 11:00:00,
2013-08-10 07:03:00,65.6,59.6,29.92,WNW,291,0.0,0.0,81,0.01,,,0.01,51.00,VWS V14.01,2013-08-10 11:03:00,
2013-08-10 07:05:00,65.3,61.0,29.91,WNW,294,0.0,0.0,86,0.00,,-RA,0.00,0.00,VWS V14.01,2013-08-10 11:05:00,
2013-08-10 07:08:00,65.8,59.8,29.92,NW,309,1.0,2.0,81,0.01,,,0.01,76.00,VWS V14.01,2013-08-10 11:08:00,
2013-08-10 07:10:00,65.2,61.2,29.91,WNW,294,0.0,0.0,87,0.00,,-RA,0.00,0.00,VWS V14.01,2013-08-10 11:10:00,
2013-08-10 07:13:00,66.0,59.7,29.92,WNW,282,0.0,0.0,80,0.01,,,0.01,118.00,VWS V14.01,2013-08-10 11:13:00,
2013-08-10 07:15:00,65.2,61.6,29.92,WNW,294,0.0,0.0,88,0.00,,-RA,0.00,7.00,VWS V14.01,2013-08-10 11:15:00,
2013-08-10 07:18:00,66.4,59.7,29.93,SSE,148,0.0,0.0,79,0.01,,,0.01,111.00,VWS V14.01,2013-08-10 11:18:00,
2013-08-10 07:20:00,65.2,61.6,29.92,WNW,294,0.0,0.0,88,0.00,,-RA,0.00,11.00,VWS V14.01,2013-08-10 11:20:00,
2013-08-10 07:23:00,66.4,59.3,29.93,NNW,342,0.0,4.0,78,0.01,,,0.01,151.00,VWS V14.01,2013-08-10 11:23:00,
2013-08-10 07:25:00,65.3,61.7,29.92,North,352,0.0,6.0,88,0.00,,-RA,0.00,23.00,VWS V14.01,2013-08-10 11:25:00,
2013-08-10 07:28:00,66.8,59.0,29.93,NNW,343,0.0,2.0,76,0.01,,,0.01,111.00,VWS V14.01,2013-08-10 11:28:00,
2013-08-10 07:30:00,65.5,61.9,29.92,North,357,0.0,2.0,88,0.01,,-RA,0.01,25.00,VWS V14.01,2013-08-10 11:30:00,
2013-08-10 07:33:00,66.9,58.3,29.93,NW,322,4.0,7.0,74,0.00,,,0.01,99.00,VWS V14.01,2013-08-10 11:33:00,
2013-08-10 07:35:00,65.6,62.0,29.92,NNW,330,0.0,5.0,88,0.01,,-RA,0.01,28.00,VWS V14.01,2013-08-10 11:35:00,
2013-08-10 07:38:00,67.1,58.5,29.93,West,274,0.0,0.0,74,0.00,,,0.01,123.00,VWS V14.01,2013-08-10 11:38:00,
2013-08-10 07:40:00,65.8,61.8,29.92,NNW,343,0.0,0.0,87,0.01,,-RA,0.01,26.00,VWS V14.01,2013-08-10 11:40:00,
2013-08-10 07:43:00,67.1,58.2,29.93,West,274,0.0,0.0,73,0.00,,,0.01,99.00,VWS V14.01,2013-08-10 11:43:00,
2013-08-10 07:45:00,66.0,61.7,29.92,NNW,335,0.0,0.0,86,0.01,,-RA,0.01,32.00,VWS V14.01,2013-08-10 11:45:00,
2013-08-10 07:48:00,67.3,58.4,29.93,West,274,0.0,0.0,73,0.00,,,0.01,102.00,VWS V14.01,2013-08-10 11:48:00,
2013-08-10 07:50:00,66.0,61.4,29.92,North,353,0.0,0.0,85,0.01,,-RA,0.01,26.00,VWS V14.01,2013-08-10 11:50:00,
2013-08-10 07:53:00,67.4,58.5,29.93,West,275,0.0,0.0,73,0.00,,,0.01,102.00,VWS V14.01,2013-08-10 11:53:00,
2013-08-10 07:55:00,65.8,60.5,29.92,North,349,0.0,0.0,83,0.01,,-RA,0.01,32.00,VWS V14.01,2013-08-10 11:55:00,
2013-08-10 07:58:00,67.4,58.1,29.93,WSW,240,3.0,3.0,72,0.00,,,0.01,102.00,VWS V14.01,2013-08-10 11:58:00,
2013-08-10 08:00:00,65.8,60.2,29.92,North,357,0.0,0.0,82,0.01,,-RA,0.01,40.00,VWS V14.01,2013-08-10 12:00:00,
2013-08-10 08:03:00,67.4,58.1,29.94,WNW,301,0.0,0.0,72,0.00,,CLR,0.01,106.00,VWS V14.01,2013-08-10 12:03:00,
2013-08-10 08:05:00,65.6,59.6,29.92,WNW,291,0.0,2.0,81,0.01,,-RA,0.01,51.00,VWS V14.01,2013-08-10 12:05:00,
2013-08-10 08:08:00,67.6,58.3,29.94,NNW,336,2.0,5.0,72,0.00,,CLR,0.01,114.00,VWS V14.01,2013-08-10 12:08:00,
2013-08-10 08:10:00,66.0,60.0,29.92,NW,309,0.0,1.0,81,0.01,,-RA,0.01,104.00,VWS V14.01,2013-08-10 12:10:00,
2013-08-10 08:13:00,67.6,57.9,29.94,North,356,1.0,5.0,71,0.00,,CLR,0.01,121.00,VWS V14.01,2013-08-10 12:13:00,
2013-08-10 08:15:00,66.1,59.8,29.93,WNW,282,3.0,3.0,80,0.01,,-RA,0.01,107.00,VWS V14.01,2013-08-10 12:15:00,
2013-08-10 08:18:00,67.9,57.8,29.93,WSW,253,0.0,3.0,70,0.00,,CLR,0.01,123.00,VWS V14.01,2013-08-10 12:18:00,
2013-08-10 08:20:00,66.4,59.7,29.93,SSE,148,0.0,0.0,79,0.01,,-RA,0.01,118.00,VWS V14.01,2013-08-10 12:20:00,
2013-08-10 08:23:00,68.1,57.6,29.93,West,268,3.0,7.0,69,0.00,,CLR,0.01,150.00,VWS V14.01,2013-08-10 12:23:00,
2013-08-10 08:25:00,66.4,59.0,29.93,NNW,342,0.0,3.0,77,0.01,,-RA,0.01,116.00,VWS V14.01,2013-08-10 12:25:00,
2013-08-10 08:28:00,68.3,56.9,29.93,NW,325,4.0,7.0,67,0.00,,CLR,0.01,202.00,VWS V14.01,2013-08-10 12:28:00,
2013-08-10 08:30:00,67.1,59.3,29.93,NNE,24,7.0,7.0,76,0.01,,-RA,0.01,107.00,VWS V14.01,2013-08-10 12:30:00,
2013-08-10 08:33:00,68.6,57.6,29.94,North,0,0.0,3.0,68,0.00,,CLR,0.01,341.00,VWS V14.01,2013-08-10 12:33:00,
2013-08-10 08:35:00,67.1,58.5,29.93,NW,322,0.0,5.0,74,0.00,,-RA,0.01,100.00,VWS V14.01,2013-08-10 12:35:00,
2013-08-10 08:38:00,68.6,57.2,29.94,NNW,347,4.0,7.0,67,0.00,,CLR,0.01,201.00,VWS V14.01,2013-08-10 12:38:00,
2013-08-10 08:40:00,67.1,58.5,29.93,West,274,0.0,0.0,74,0.00,,-RA,0.01,123.00,VWS V14.01,2013-08-10 12:40:00,
2013-08-10 08:43:00,68.6,56.8,29.94,North,6,6.0,7.0,66,0.00,,CLR,0.01,278.00,VWS V14.01,2013-08-10 12:43:00,
2013-08-10 08:45:00,67.3,58.4,29.93,West,274,0.0,0.0,73,0.00,,-RA,0.01,99.00,VWS V14.01,2013-08-10 12:45:00,
2013-08-10 08:48:00,68.6,56.8,29.94,North,0,1.0,6.0,66,0.00,,CLR,0.01,285.00,VWS V14.01,2013-08-10 12:48:00,
2013-08-10 08:50:00,67.3,58.0,29.93,West,275,0.0,4.0,72,0.00,,-RA,0.01,104.00,VWS V14.01,2013-08-10 12:50:00,
2013-08-10 08:53:00,68.6,56.0,29.94,WNW,295,0.0,8.0,64,0.00,,CLR,0.01,313.00,VWS V14.01,2013-08-10 12:53:00,
2013-08-10 08:55:00,67.4,58.5,29.93,WNW,288,1.0,2.0,73,0.00,,-RA,0.01,102.00,VWS V14.01,2013-08-10 12:55:00,
2013-08-10 08:58:00,68.6,56.4,29.94,WNW,282,0.0,6.0,65,0.00,,CLR,0.01,238.00,VWS V14.01,2013-08-10 12:58:00,
2013-08-10 09:00:00,67.4,58.1,29.94,NW,316,0.0,6.0,72,0.00,,-RA,0.01,107.00,VWS V14.01,2013-08-10 13:00:00,
2013-08-10 09:03:00,68.6,56.4,29.95,North,8,2.0,2.0,65,0.00,,CLR,0.01,229.00,VWS V14.01,2013-08-10 13:03:00,
2013-08-10 09:05:00,67.6,58.3,29.94,WNW,302,0.0,0.0,72,0.00,,-RA,0.01,107.00,VWS V14.01,2013-08-10 13:05:00,
2013-08-10 09:08:00,68.6,56.4,29.95,North,8,2.0,2.0,65,0.00,,CLR,0.01,229.00,VWS V14.01,2013-08-10 13:08:00,
2013-08-10 09:10:00,67.6,58.3,29.94,North,356,2.0,6.0,72,0.00,,-RA,0.01,120.00,VWS V14.01,2013-08-10 13:10:00,
2013-08-10 09:13:00,68.6,56.4,29.95,North,8,2.0,2.0,65,0.00,,CLR,0.01,229.00,VWS V14.01,2013-08-10 13:13:00,
2013-08-10 09:15:00,67.8,58.1,29.93,North,356,4.0,4.0,71,0.00,,-RA,0.01,125.00,VWS V14.01,2013-08-10 13:15:00,
2013-08-10 09:18:00,68.6,56.4,29.95,North,8,2.0,2.0,65,0.00,,CLR,0.01,229.00,VWS V14.01,2013-08-10 13:18:00,
2013-08-10 09:20:00,68.1,58.0,29.93,NW,318,2.0,5.0,70,0.00,,-RA,0.01,132.00,VWS V14.01,2013-08-10 13:20:00,
2013-08-10 09:23:00,68.6,56.4,29.95,North,8,2.0,2.0,65,0.00,,CLR,0.01,229.00,VWS V14.01,2013-08-10 13:23:00,
2013-08-10 09:25:00,68.3,57.8,29.93,WSW,258,0.0,3.0,69,0.00,,-RA,0.01,179.00,VWS V14.01,2013-08-10 13:25:00,
2013-08-10 09:28:00,68.6,56.4,29.95,North,8,2.0,2.0,65,0.00,,CLR,0.01,229.00,VWS V14.01,2013-08-10 13:28:00,
2013-08-10 09:30:00,68.4,57.0,29.94,North,0,2.0,6.0,67,0.00,,-RA,0.01,341.00,VWS V14.01,2013-08-10 13:30:00,
2013-08-10 09:33:00,68.6,56.4,29.95,North,8,2.0,2.0,65,0.00,,CLR,0.01,229.00,VWS V14.01,2013-08-10 13:33:00,
2013-08-10 09:35:00,68.6,57.2,29.94,North,356,3.0,6.0,67,0.00,,-RA,0.01,225.00,VWS V14.01,2013-08-10 13:35:00,
2013-08-10 09:38:00,68.6,56.4,29.95,North,8,2.0,2.0,65,0.00,,CLR,0.01,229.00,VWS V14.01,2013-08-10 13:38:00,
2013-08-10 09:40:00,68.6,56.8,29.94,NW,320,5.0,6.0,66,0.00,,-RA,0.01,283.00,VWS V14.01,2013-08-10 13:40:00,
2013-08-10 09:43:00,70.4,54.9,29.95,NW,313,3.0,3.0,58,0.00,,CLR,0.01,440.00,VWS V14.01,2013-08-10 13:43:00,
2013-08-10 09:45:00,68.6,57.2,29.94,North,6,0.0,6.0,67,0.00,,-RA,0.01,271.00,VWS V14.01,2013-08-10 13:45:00,
2013-08-10 09:48:00,70.8,55.3,29.95,West,260,0.0,5.0,58,0.00,,CLR,0.01,655.00,VWS V14.01,2013-08-10 13:48:00,
2013-08-10 09:50:00,68.8,57.4,29.94,North,359,6.0,6.0,67,0.00,,-RA,0.01,347.00,VWS V14.01,2013-08-10 13:50:00,
2013-08-10 09:53:00,71.3,55.3,29.95,WNW,285,2.0,5.0,57,0.00,,CLR,0.01,716.00,VWS V14.01,2013-08-10 13:53:00,
2013-08-10 09:55:00,68.6,56.4,29.94,NW,313,3.0,3.0,65,0.00,,-RA,0.01,248.00,VWS V14.01,2013-08-10 13:55:00,
2013-08-10 09:58:00,71.5,55.5,29.95,WNW,287,2.0,5.0,57,0.00,,CLR,0.01,646.00,VWS V14.01,2013-08-10 13:58:00,
2013-08-10 10:00:00,68.6,56.4,29.95,North,8,2.0,7.0,65,0.00,,-RA,0.01,229.00,VWS V14.01,2013-08-10 14:00:00,
2013-08-10 10:03:00,71.6,55.1,29.95,North,0,3.0,7.0,56,0.00,,CLR,0.01,626.00,VWS V14.01,2013-08-10 14:03:00,
2013-08-10 10:05:00,68.6,56.4,29.95,North,8,2.0,2.0,65,0.00,,-RA,0.01,229.00,VWS V14.01,2013-08-10 14:05:00,
2013-08-10 10:08:00,71.8,55.8,29.95,NNW,346,0.0,4.0,57,0.00,,CLR,0.01,721.00,VWS V14.01,2013-08-10 14:08:00,
2013-08-10 10:10:00,68.6,56.4,29.95,North,8,2.0,2.0,65,0.00,,-RA,0.01,229.00,VWS V14.01,2013-08-10 14:10:00,
2013-08-10 10:13:00,72.1,56.0,29.95,WNW,296,6.0,6.0,57,0.00,,CLR,0.01,901.00,VWS V14.01,2013-08-10 14:13:00,
2013-08-10 10:15:00,68.6,56.4,29.95,North,8,2.0,2.0,65,0.00,,-RA,0.01,229.00,VWS V14.01,2013-08-10 14:15:00,
2013-08-10 10:18:00,72.7,54.6,29.95,NW,325,5.0,8.0,53,0.00,,CLR,0.01,428.00,VWS V14.01,2013-08-10 14:18:00,
2013-08-10 10:20:00,68.6,56.4,29.95,North,8,2.0,2.0,65,0.00,,-RA,0.01,229.00,VWS V14.01,2013-08-10 14:20:00,
2013-08-10 10:23:00,72.3,54.2,29.95,NNW,346,5.0,10.0,53,0.00,,CLR,0.01,355.00,VWS V14.01,2013-08-10 14:23:00,
2013-08-10 10:25:00,68.6,56.4,29.95,North,8,2.0,2.0,65,0.00,,-RA,0.01,229.00,VWS V14.01,2013-08-10 14:25:00,
2013-08-10 10:28:00,72.3,54.7,29.95,North,354,5.0,13.0,54,0.00,,CLR,0.01,352.00,VWS V14.01,2013-08-10 14:28:00,
2013-08-10 10:30:00,68.6,56.4,29.95,North,8,2.0,2.0,65,0.00,,-RA,0.01,229.00,VWS V14.01,2013-08-10 14:30:00,
2013-08-10 10:33:00,72.1,55.1,29.95,North,354,7.0,10.0,55,0.00,,CLR,0.01,377.00,VWS V14.01,2013-08-10 14:33:00,
2013-08-10 10:35:00,68.6,56.4,29.95,North,8,2.0,2.0,65,0.00,,-RA,0.01,229.00,VWS V14.01,2013-08-10 14:35:00,
2013-08-10 10:38:00,72.1,55.6,29.95,NNW,340,0.0,8.0,56,0.00,,CLR,0.01,461.00,VWS V14.01,2013-08-10 14:38:00,
2013-08-10 10:40:00,68.6,56.4,29.95,North,8,2.0,2.0,65,0.00,,-RA,0.01,229.00,VWS V14.01,2013-08-10 14:40:00,
2013-08-10 10:43:00,72.0,55.5,29.95,North,8,7.0,11.0,56,0.00,,CLR,0.01,370.00,VWS V14.01,2013-08-10 14:43:00,
2013-08-10 10:45:00,70.4,55.4,29.95,WNW,282,0.0,3.0,59,0.00,,-RA,0.01,440.00,VWS V14.01,2013-08-10 14:45:00,
2013-08-10 10:48:00,72.1,56.0,29.95,North,0,7.0,8.0,57,0.00,,CLR,0.01,415.00,VWS V14.01,2013-08-10 14:48:00,
2013-08-10 10:50:00,70.9,55.4,29.95,WSW,257,4.0,6.0,58,0.00,,-RA,0.01,699.00,VWS V14.01,2013-08-10 14:50:00,
2013-08-10 10:53:00,72.1,55.6,29.95,West,281,5.0,7.0,56,0.00,,CLR,0.01,327.00,VWS V14.01,2013-08-10 14:53:00,
2013-08-10 10:55:00,71.5,56.4,29.95,North,352,5.0,6.0,59,0.00,,-RA,0.01,716.00,VWS V14.01,2013-08-10 14:55:00,
2013-08-10 10:58:00,72.1,55.1,29.95,North,0,3.0,8.0,55,0.00,,CLR,0.01,392.00,VWS V14.01,2013-08-10 14:58:00,
2013-08-10 11:00:00,71.6,55.6,29.95,NW,309,3.0,8.0,57,0.00,,-RA,0.01,649.00,VWS V14.01,2013-08-10 15:00:00,
2013-08-10 11:03:00,71.8,55.3,29.95,North,3,2.0,7.0,56,0.00,,CLR,0.01,774.00,VWS V14.01,2013-08-10 15:03:00,
2013-08-10 11:05:00,71.6,55.1,29.95,North,0,0.0,5.0,56,0.00,,-RA,0.01,626.00,VWS V14.01,2013-08-10 15:05:00,
2013-08-10 11:08:00,72.3,56.2,29.95,North,0,2.0,5.0,57,0.00,,CLR,0.01,683.00,VWS V14.01,2013-08-10 15:08:00,
2013-08-10 11:10:00,72.1,56.0,29.95,North,0,5.0,8.0,57,0.00,,-RA,0.01,721.00,VWS V14.01,2013-08-10 15:10:00,
2013-08-10 11:13:00,72.5,55.9,29.95,NNW,336,7.0,8.0,56,0.00,,CLR,0.01,683.00,VWS V14.01,2013-08-10 15:13:00,
2013-08-10 11:15:00,72.5,55.9,29.95,NW,320,2.0,7.0,56,0.00,,-RA,0.01,384.00,VWS V14.01,2013-08-10 15:15:00,
2013-08-10 11:18:00,72.8,55.7,29.95,West,263,4.0,7.0,55,0.00,,CLR,0.01,748.00,VWS V14.01,2013-08-10 15:18:00,
2013-08-10 11:20:00,72.7,54.6,29.95,NNW,337,5.0,7.0,53,0.00,,-RA,0.01,373.00,VWS V14.01,2013-08-10 15:20:00,
2013-08-10 11:23:00,73.5,54.8,29.95,WSW,244,3.0,8.0,52,0.00,,CLR,0.01,619.00,VWS V14.01,2013-08-10 15:23:00,
2013-08-10 11:25:00,72.3,54.7,29.95,NW,325,9.0,9.0,54,0.00,,-RA,0.01,355.00,VWS V14.01,2013-08-10 15:25:00,
2013-08-10 11:28:00,73.7,55.0,29.95,North,0,0.0,7.0,52,0.00,,CLR,0.01,574.00,VWS V14.01,2013-08-10 15:28:00,
2013-08-10 11:30:00,72.1,54.6,29.95,North,0,5.0,11.0,54,0.00,,-RA,0.01,377.00,VWS V14.01,2013-08-10 15:30:00,
2013-08-10 11:33:00,73.7,53.9,29.95,North,0,6.0,11.0,50,0.00,,CLR,0.01,484.00,VWS V14.01,2013-08-10 15:33:00,
2013-08-10 11:35:00,72.1,56.0,29.95,North,350,5.0,8.0,57,0.00,,-RA,0.01,426.00,VWS V14.01,2013-08-10 15:35:00,
2013-08-10 11:38:00,73.9,55.2,29.95,North,0,8.0,8.0,52,0.00,,CLR,0.01,509.00,VWS V14.01,2013-08-10 15:38:00,
2013-08-10 11:40:00,72.1,56.0,29.95,North,357,6.0,6.0,57,0.00,,-RA,0.01,394.00,VWS V14.01,2013-08-10 15:40:00,
2013-08-10 11:43:00,73.5,54.3,29.95,North,0,2.0,7.0,51,0.00,,CLR,0.01,505.00,VWS V14.01,2013-08-10 15:43:00,
2013-08-10 11:45:00,72.0,56.0,29.95,North,0,7.0,10.0,57,0.00,,-RA,0.01,415.00,VWS V14.01,2013-08-10 15:45:00,
2013-08-10 11:48:00,73.5,55.3,29.95,North,353,7.0,10.0,53,0.00,,CLR,0.01,505.00,VWS V14.01,2013-08-10 15:48:00,
2013-08-10 11:50:00,72.1,56.5,29.95,North,4,3.0,8.0,58,0.00,,-RA,0.01,424.00,VWS V14.01,2013-08-10 15:50:00,
2013-08-10 11:53:00,73.7,56.0,29.95,NNW,336,5.0,7.0,54,0.00,,CLR,0.01,472.00,VWS V14.01,2013-08-10 15:53:00,
2013-08-10 11:55:00,72.1,55.6,29.95,North,0,6.0,6.0,56,0.00,,-RA,0.01,340.00,VWS V14.01,2013-08-10 15:55:00,
2013-08-10 11:58:00,74.0,55.8,29.95,NNW,329,1.0,7.0,53,0.00,,CLR,0.01,428.00,VWS V14.01,2013-08-10 15:58:00,
2013-08-10 12:00:00,72.0,55.0,29.95,NNW,343,3.0,7.0,55,0.00,,-RA,0.01,357.00,VWS V14.01,2013-08-10 16:00:00,
2013-08-10 12:03:00,74.0,54.7,29.95,SW,217,5.0,8.0,51,0.00,,CLR,0.01,572.00,VWS V14.01,2013-08-10 16:03:00,
2013-08-10 12:05:00,72.0,56.0,29.95,North,1,0.0,2.0,57,0.00,,-RA,0.01,774.00,VWS V14.01,2013-08-10 16:05:00,
2013-08-10 12:08:00,74.2,54.9,29.95,North,356,4.0,10.0,51,0.00,,CLR,0.01,512.00,VWS V14.01,2013-08-10 16:08:00,
2013-08-10 12:10:00,72.5,56.4,29.95,NNW,347,3.0,5.0,57,0.00,,-RA,0.01,683.00,VWS V14.01,2013-08-10 16:10:00,
2013-08-10 12:13:00,74.2,56.0,29.95,WNW,295,1.0,5.0,53,0.00,,CLR,0.01,457.00,VWS V14.01,2013-08-10 16:13:00,
2013-08-10 12:15:00,72.5,55.4,29.95,North,0,6.0,6.0,55,0.00,,-RA,0.01,683.00,VWS V14.01,2013-08-10 16:15:00,
2013-08-10 12:18:00,74.6,55.8,29.95,West,275,0.0,6.0,52,0.00,,CLR,0.01,521.00,VWS V14.01,2013-08-10 16:18:00,
2013-08-10 12:20:00,73.0,55.4,29.95,WSW,257,2.0,10.0,54,0.00,,-RA,0.01,748.00,VWS V14.01,2013-08-10 16:20:00,
2013-08-10 12:23:00,74.7,54.8,29.95,WSW,244,4.0,10.0,50,0.00,,CLR,0.01,551.00,VWS V14.01,2013-08-10 16:23:00,
2013-08-10 12:25:00,73.5,54.8,29.95,WSW,253,5.0,11.0,52,0.00,,-RA,0.01,572.00,VWS V14.01,2013-08-10 16:25:00,
2013-08-10 12:28:00,74.4,54.6,29.95,West,263,3.0,11.0,50,0.00,,CLR,0.01,399.00,VWS V14.01,2013-08-10 16:28:00,
2013-08-10 12:30:00,73.7,54.5,29.95,West,277,5.0,7.0,51,0.00,,-RA,0.01,574.00,VWS V14.01,2013-08-10 16:30:00,
2013-08-10 12:33:00,74.6,54.8,29.95,WSW,258,6.0,7.0,50,0.00,,CLR,0.01,463.00,VWS V14.01,2013-08-10 16:33:00,
2013-08-10 12:35:00,73.9,55.7,29.95,WSW,248,0.0,4.0,53,0.00,,-RA,0.01,510.00,VWS V14.01,2013-08-10 16:35:00,
2013-08-10 12:38:00,74.7,54.8,29.95,West,264,6.0,6.0,50,0.00,,CLR,0.01,461.00,VWS V14.01,2013-08-10 16:38:00,
2013-08-10 12:40:00,73.7,55.0,29.95,NNW,337,5.0,8.0,52,0.00,,-RA,0.01,512.00,VWS V14.01,2013-08-10 16:40:00,
2013-08-10 12:43:00,74.7,54.3,29.95,West,280,0.0,8.0,49,0.00,,CLR,0.01,487.00,VWS V14.01,2013-08-10 16:43:00,
2013-08-10 12:45:00,73.5,54.8,29.95,NW,323,4.0,12.0,52,0.00,,-RA,0.01,505.00,VWS V14.01,2013-08-10 16:45:00,
2013-08-10 12:48:00,75.1,52.9,29.95,NW,322,6.0,7.0,46,0.00,,CLR,0.01,612.00,VWS V14.01,2013-08-10 16:48:00,
2013-08-10 12:50:00,73.5,55.8,29.95,NE,34,6.0,10.0,54,0.00,,-RA,0.01,489.00,VWS V14.01,2013-08-10 16:50:00,
2013-08-10 12:53:00,75.1,54.1,29.95,West,264,5.0,7.0,48,0.00,,CLR,0.01,611.00,VWS V14.01,2013-08-10 16:53:00,
2013-08-10 12:55:00,73.9,55.7,29.95,NNW,330,0.0,4.0,53,0.00,,-RA,0.01,415.00,VWS V14.01,2013-08-10 16:55:00,
2013-08-10 12:58:00,75.4,55.5,29.95,SW,217,10.0,10.0,50,0.00,,CLR,0.01,1105.00,VWS V14.01,2013-08-10 16:58:00,
2013-08-10 13:00:00,74.0,55.3,29.95,North,354,3.0,6.0,52,0.00,,-RA,0.01,428.00,VWS V14.01,2013-08-10 17:00:00,
2013-08-10 13:03:00,75.8,54.7,29.94,WNW,296,7.0,10.0,48,0.00,,CLR,0.01,1091.00,VWS V14.01,2013-08-10 17:03:00,
2013-08-10 13:05:00,74.2,55.5,29.95,NW,306,1.0,7.0,52,0.00,,-RA,0.01,572.00,VWS V14.01,2013-08-10 17:05:00,
2013-08-10 13:08:00,76.0,54.3,29.94,SW,234,7.0,10.0,47,0.00,,CLR,0.01,1094.00,VWS V14.01,2013-08-10 17:08:00,
2013-08-10 13:10:00,74.0,54.2,29.95,North,354,2.0,7.0,50,0.00,,-RA,0.01,457.00,VWS V14.01,2013-08-10 17:10:00,
2013-08-10 13:13:00,75.6,54.5,29.94,WSW,258,2.0,8.0,48,0.00,,CLR,0.01,415.00,VWS V14.01,2013-08-10 17:13:00,
2013-08-10 13:15:00,74.4,55.1,29.95,WNW,301,0.0,3.0,51,0.00,,-RA,0.01,457.00,VWS V14.01,2013-08-10 17:15:00,
2013-08-10 13:18:00,75.6,54.5,29.95,North,356,10.0,10.0,48,0.00,,CLR,0.01,880.00,VWS V14.01,2013-08-10 17:18:00,
2013-08-10 13:20:00,74.7,55.4,29.95,SW,236,4.0,4.0,51,0.00,,-RA,0.01,521.00,VWS V14.01,2013-08-10 17:20:00,
2013-08-10 13:23:00,75.6,53.4,29.95,North,11,0.0,7.0,46,0.00,,CLR,0.01,950.00,VWS V14.01,2013-08-10 17:23:00,
2013-08-10 13:25:00,74.6,54.8,29.95,West,274,4.0,7.0,50,0.00,,-RA,0.01,551.00,VWS V14.01,2013-08-10 17:25:00,
2013-08-10 13:28:00,76.0,53.8,29.95,NW,312,11.0,11.0,46,0.00,,CLR,0.01,1033.00,VWS V14.01,2013-08-10 17:28:00,
2013-08-10 13:30:00,74.4,55.1,29.95,West,275,3.0,6.0,51,0.00,,-RA,0.01,417.00,VWS V14.01,2013-08-10 17:30:00,
2013-08-10 13:33:00,76.5,53.0,29.94,WSW,244,8.0,13.0,44,0.00,,CLR,0.01,1089.00,VWS V14.01,2013-08-10 17:33:00,
2013-08-10 13:35:00,74.6,54.2,29.95,WNW,301,1.0,8.0,49,0.00,,-RA,0.01,758.00,VWS V14.01,2013-08-10 17:35:00,
2013-08-10 13:38:00,76.5,52.4,29.94,West,261,5.0,14.0,43,0.00,,CLR,0.01,1063.00,VWS V14.01,2013-08-10 17:38:00,
2013-08-10 13:40:00,74.7,54.8,29.95,WSW,256,0.0,6.0,50,0.00,,-RA,0.01,489.00,VWS V14.01,2013-08-10 17:40:00,
2013-08-10 13:43:00,76.8,52.6,29.94,WSW,241,7.0,7.0,43,0.00,,CLR,0.01,1022.00,VWS V14.01,2013-08-10 17:43:00,
2013-08-10 13:45:00,74.9,55.0,29.95,West,268,3.0,3.0,50,0.00,,-RA,0.01,509.00,VWS V14.01,2013-08-10 17:45:00,
2013-08-10 13:48:00,77.0,52.8,29.95,North,352,6.0,6.0,43,0.00,,CLR,0.01,327.00,VWS V14.01,2013-08-10 17:48:00,
2013-08-10 13:50:00,75.1,54.1,29.95,West,260,1.0,5.0,48,0.00,,-RA,0.01,586.00,VWS V14.01,2013-08-10 17:50:00,
2013-08-10 13:53:00,76.7,54.4,29.95,SW,217,5.0,6.0,46,0.00,,CLR,0.01,1040.00,VWS V14.01,2013-08-10 17:53:00,
2013-08-10 13:55:00,75.1,54.1,29.95,WSW,254,0.0,6.0,48,0.00,,-RA,0.01,572.00,VWS V14.01,2013-08-10 17:55:00,
2013-08-10 13:58:00,77.4,53.2,29.95,North,354,3.0,7.0,43,0.00,,CLR,0.01,1049.00,VWS V14.01,2013-08-10 17:58:00,
2013-08-10 14:00:00,75.6,54.5,29.94,SW,233,6.0,10.0,48,0.00,,-RA,0.01,1066.00,VWS V14.01,2013-08-10 18:00:00,
2013-08-10 14:03:00,77.2,53.6,29.94,SSW,198,7.0,11.0,44,0.00,,CLR,0.01,987.00,VWS V14.01,2013-08-10 18:03:00,
2013-08-10 14:05:00,75.8,54.2,29.94,West,260,1.0,13.0,47,0.00,,-RA,0.01,1094.00,VWS V14.01,2013-08-10 18:05:00,
2013-08-10 14:08:00,77.2,53.6,29.94,West,278,6.0,10.0,44,0.00,,CLR,0.01,338.00,VWS V14.01,2013-08-10 18:08:00,
2013-08-10 14:10:00,75.8,53.6,29.94,WSW,250,7.0,11.0,46,0.00,,-RA,0.01,1094.00,VWS V14.01,2013-08-10 18:10:00,
2013-08-10 14:13:00,77.7,53.5,29.94,WSW,253,2.0,6.0,43,0.00,,CLR,0.01,945.00,VWS V14.01,2013-08-10 18:13:00,
2013-08-10 14:15:00,75.4,53.2,29.95,NW,326,4.0,10.0,46,0.00,,-RA,0.01,880.00,VWS V14.01,2013-08-10 18:15:00,
2013-08-10 14:18:00,77.7,52.8,29.94,WNW,289,6.0,11.0,42,0.00,,CLR,0.01,985.00,VWS V14.01,2013-08-10 18:18:00,
2013-08-10 14:20:00,75.8,53.6,29.95,North,356,2.0,10.0,46,0.00,,-RA,0.01,941.00,VWS V14.01,2013-08-10 18:20:00,
2013-08-10 14:23:00,77.2,53.0,29.94,WSW,250,8.0,10.0,43,0.00,,CLR,0.01,274.00,VWS V14.01,2013-08-10 18:23:00,
2013-08-10 14:25:00,75.8,54.7,29.95,SSW,199,2.0,6.0,48,0.00,,-RA,0.01,968.00,VWS V14.01,2013-08-10 18:25:00,
2013-08-10 14:28:00,77.4,53.2,29.94,SW,233,7.0,17.0,43,0.00,,CLR,0.01,852.00,VWS V14.01,2013-08-10 18:28:00,
2013-08-10 14:30:00,76.3,54.6,29.94,SW,223,1.0,13.0,47,0.00,,-RA,0.01,1026.00,VWS V14.01,2013-08-10 18:30:00,
2013-08-10 14:33:00,77.6,52.1,29.93,WSW,256,11.0,14.0,41,0.00,,CLR,0.01,1012.00,VWS V14.01,2013-08-10 18:33:00,
2013-08-10 14:35:00,76.3,52.8,29.94,WNW,285,4.0,7.0,44,0.00,,-RA,0.01,1089.00,VWS V14.01,2013-08-10 18:35:00,
2013-08-10 14:38:00,77.6,51.4,29.93,West,280,5.0,17.0,40,0.00,,CLR,0.01,753.00,VWS V14.01,2013-08-10 18:38:00,
2013-08-10 14:40:00,76.5,53.0,29.94,WNW,295,6.0,8.0,44,0.00,,-RA,0.01,1022.00,VWS V14.01,2013-08-10 18:40:00,
2013-08-10 14:43:00,77.7,51.5,29.93,SW,229,7.0,12.0,40,0.00,,CLR,0.01,989.00,VWS V14.01,2013-08-10 18:43:00,
2013-08-10 14:45:00,77.0,53.4,29.95,NNW,339,2.0,8.0,44,0.00,,-RA,0.01,1022.00,VWS V14.01,2013-08-10 18:45:00,
2013-08-10 14:48:00,77.9,53.0,29.94,SSW,208,3.0,7.0,42,0.00,,CLR,0.01,612.00,VWS V14.01,2013-08-10 18:48:00,
2013-08-10 14:50:00,76.7,52.5,29.95,NNW,339,2.0,7.0,43,0.00,,-RA,0.01,327.00,VWS V14.01,2013-08-10 18:50:00,
2013-08-10 14:53:00,78.5,52.2,29.94,SW,230,7.0,11.0,40,0.00,,CLR,0.01,962.00,VWS V14.01,2013-08-10 18:53:00,
2013-08-10 14:55:00,76.8,53.3,29.95,West,280,2.0,13.0,44,0.00,,-RA,0.01,1054.00,VWS V14.01,2013-08-10 18:55:00,
2013-08-10 14:58:00,78.1,51.8,29.94,WSW,251,0.0,7.0,40,0.00,,CLR,0.01,860.00,VWS V14.01,2013-08-10 18:58:00,
2013-08-10 15:00:00,77.6,52.7,29.94,West,270,6.0,16.0,42,0.00,,-RA,0.01,1049.00,VWS V14.01,2013-08-10 19:00:00,
2013-08-10 15:03:00,78.6,52.3,29.93,WNW,285,3.0,7.0,40,0.00,,BKN060,0.01,816.00,VWS V14.01,2013-08-10 19:03:00,
2013-08-10 15:05:00,77.2,53.6,29.94,SW,234,6.0,11.0,44,0.00,,-RA,0.01,968.00,VWS V14.01,2013-08-10 19:05:00,
2013-08-10 15:08:00,79.2,51.4,29.93,West,260,3.0,6.0,38,0.00,,BKN060,0.01,880.00,VWS V14.01,2013-08-10 19:08:00,
2013-08-10 15:10:00,77.4,54.4,29.94,North,359,5.0,10.0,45,0.00,,-RA,0.01,964.00,VWS V14.01,2013-08-10 19:10:00,
2013-08-10 15:13:00,79.4,50.2,29.93,WSW,243,11.0,14.0,36,0.00,,BKN060,0.01,843.00,VWS V14.01,2013-08-10 19:13:00,
2013-08-10 15:15:00,77.7,52.8,29.94,WSW,251,11.0,16.0,42,0.00,,-RA,0.01,985.00,VWS V14.01,2013-08-10 19:15:00,
2013-08-10 15:18:00,78.8,50.4,29.94,WSW,243,6.0,12.0,37,0.00,,BKN060,0.01,774.00,VWS V14.01,2013-08-10 19:18:00,
2013-08-10 15:20:00,77.6,52.7,29.94,WSW,254,5.0,14.0,42,0.00,,-RA,0.01,985.00,VWS V14.01,2013-08-10 19:20:00,
2013-08-10 15:23:00,78.5,50.1,29.94,West,267,5.0,11.0,37,0.00,,BKN060,0.01,113.00,VWS V14.01,2013-08-10 19:23:00,
2013-08-10 15:25:00,77.2,54.2,29.94,WNW,291,0.0,8.0,45,0.00,,-RA,0.01,274.00,VWS V14.01,2013-08-10 19:25:00,
2013-08-10 15:28:00,78.5,50.8,29.94,SW,236,6.0,12.0,38,0.00,,BKN060,0.01,744.00,VWS V14.01,2013-08-10 19:28:00,
2013-08-10 15:30:00,77.6,53.4,29.93,WSW,237,18.0,18.0,43,0.00,,-RA,0.01,1052.00,VWS V14.01,2013-08-10 19:30:00,
2013-08-10 15:33:00,78.5,50.8,29.93,West,267,6.0,11.0,38,0.00,,BKN060,0.01,741.00,VWS V14.01,2013-08-10 19:33:00,
2013-08-10 15:35:00,77.7,52.2,29.93,SW,236,5.0,12.0,41,0.00,,-RA,0.01,718.00,VWS V14.01,2013-08-10 19:35:00,
2013-08-10 15:38:00,78.8,51.1,29.93,WNW,285,2.0,7.0,38,0.00,,BKN060,0.01,739.00,VWS V14.01,2013-08-10 19:38:00,
2013-08-10 15:40:00,77.7,51.5,29.93,WSW,250,1.0,6.0,40,0.00,,-RA,0.01,989.00,VWS V14.01,2013-08-10 19:40:00,
2013-08-10 15:43:00,79.4,52.3,29.93,West,268,0.0,6.0,39,0.00,,BKN060,0.01,728.00,VWS V14.01,2013-08-10 19:43:00,
2013-08-10 15:45:00,77.9,53.0,29.94,SW,226,7.0,10.0,42,0.00,,-RA,0.01,612.00,VWS V14.01,2013-08-10 19:45:00,
2013-08-10 15:48:00,79.6,51.1,29.93,WSW,243,7.0,11.0,37,0.00,,BKN060,0.01,757.00,VWS V14.01,2013-08-10 19:48:00,
2013-08-10 15:50:00,78.3,52.7,29.94,West,280,0.0,8.0,41,0.00,,-RA,0.01,962.00,VWS V14.01,2013-08-10 19:50:00,
2013-08-10 15:53:00,79.4,51.6,29.93,NNE,16,1.0,6.0,38,0.00,,BKN060,0.01,227.00,VWS V14.01,2013-08-10 19:53:00,
2013-08-10 15:55:00,78.3,52.0,29.94,WNW,298,4.0,10.0,40,0.00,,-RA,0.01,547.00,VWS V14.01,2013-08-10 19:55:00,
2013-08-10 15:58:00,79.0,52.0,29.93,West,270,0.0,6.0,39,0.00,,BKN060,0.01,187.00,VWS V14.01,2013-08-10 19:58:00,
2013-08-10 16:00:00,78.3,50.6,29.93,WNW,287,11.0,11.0,38,0.00,,-RA,0.01,839.00,VWS V14.01,2013-08-10 20:00:00,
2013-08-10 16:03:00,79.0,52.0,29.93,WSW,250,7.0,7.0,39,0.00,,BKN055,0.01,815.00,VWS V14.01,2013-08-10 20:03:00,
2013-08-10 16:05:00,78.6,50.9,29.93,NW,311,6.0,10.0,38,0.00,,-RA,0.01,832.00,VWS V14.01,2013-08-10 20:05:00,
2013-08-10 16:08:00,78.6,52.3,29.93,North,0,4.0,7.0,40,0.00,,BKN055,0.01,238.00,VWS V14.01,2013-08-10 20:08:00,
2013-08-10 16:10:00,79.4,50.9,29.93,WSW,254,0.0,9.0,37,0.00,,-RA,0.01,866.00,VWS V14.01,2013-08-10 20:10:00,
2013-08-10 16:13:00,78.1,53.2,29.93,NNW,337,2.0,6.0,42,0.00,,BKN055,0.01,260.00,VWS V14.01,2013-08-10 20:13:00,
2013-08-10 16:15:00,78.8,51.1,29.94,West,270,3.0,13.0,38,0.00,,-RA,0.01,783.00,VWS V14.01,2013-08-10 20:15:00,
2013-08-10 16:18:00,77.9,53.6,29.93,WNW,287,0.0,1.0,43,0.00,,BKN055,0.01,202.00,VWS V14.01,2013-08-10 20:18:00,
2013-08-10 16:20:00,78.8,50.3,29.94,WSW,256,11.0,11.0,37,0.00,,-RA,0.01,765.00,VWS V14.01,2013-08-10 20:20:00,
2013-08-10 16:23:00,78.3,53.3,29.93,WSW,250,0.0,1.0,42,0.00,,BKN055,0.01,322.00,VWS V14.01,2013-08-10 20:23:00,
2013-08-10 16:25:00,78.5,51.5,29.94,SW,236,3.0,7.0,39,0.00,,-RA,0.01,755.00,VWS V14.01,2013-08-10 20:25:00,
2013-08-10 16:28:00,78.5,52.9,29.93,West,261,3.0,4.0,41,0.00,,BKN055,0.01,368.00,VWS V14.01,2013-08-10 20:28:00,
2013-08-10 16:30:00,78.5,50.8,29.93,WSW,251,7.0,13.0,38,0.00,,-RA,0.01,743.00,VWS V14.01,2013-08-10 20:30:00,
2013-08-10 16:33:00,78.5,52.2,29.93,WNW,292,0.0,5.0,40,0.00,,BKN055,0.01,194.00,VWS V14.01,2013-08-10 20:33:00,
2013-08-10 16:35:00,78.6,50.9,29.93,WNW,288,8.0,8.0,38,0.00,,-RA,0.01,741.00,VWS V14.01,2013-08-10 20:35:00,
2013-08-10 16:38:00,78.5,52.9,29.93,WSW,254,0.0,1.0,41,0.00,,BKN055,0.01,211.00,VWS V14.01,2013-08-10 20:38:00,
2013-08-10 16:40:00,79.2,52.1,29.93,WSW,258,2.0,8.0,39,0.00,,-RA,0.01,748.00,VWS V14.01,2013-08-10 20:40:00,
2013-08-10 16:43:00,78.6,53.0,29.93,WNW,294,0.0,3.0,41,0.00,,BKN055,0.01,199.00,VWS V14.01,2013-08-10 20:43:00,
2013-08-10 16:45:00,79.4,53.0,29.93,SW,233,0.0,6.0,40,0.00,,-RA,0.01,757.00,VWS V14.01,2013-08-10 20:45:00,
2013-08-10 16:48:00,78.8,51.8,29.93,WSW,256,0.0,5.0,39,0.00,,BKN055,0.01,574.00,VWS V14.01,2013-08-10 20:48:00,
2013-08-10 16:50:00,79.4,51.6,29.93,North,0,0.0,10.0,38,0.00,,-RA,0.01,816.00,VWS V14.01,2013-08-10 20:50:00,
2013-08-10 16:53:00,79.2,53.5,29.93,WSW,244,0.0,4.0,41,0.00,,BKN055,0.01,542.00,VWS V14.01,2013-08-10 20:53:00,
2013-08-10 16:55:00,79.4,52.3,29.93,North,359,2.0,3.0,39,0.00,,-RA,0.01,238.00,VWS V14.01,2013-08-10 20:55:00,
2013-08-10 16:58:00,79.2,52.8,29.93,WSW,241,0.0,7.0,40,0.00,,BKN055,0.01,531.00,VWS V14.01,2013-08-10 20:58:00,
2013-08-10 17:00:00,78.8,52.5,29.93,NW,312,1.0,5.0,40,0.00,,-RA,0.01,222.00,VWS V14.01,2013-08-10 21:00:00,
2013-08-10 17:03:00,79.6,53.8,29.92,WSW,240,5.0,8.0,41,0.00,,BKN065,0.01,503.00,VWS V14.01,2013-08-10 21:03:00,
2013-08-10 17:05:00,79.0,52.6,29.93,North,0,6.0,7.0,40,0.00,,-RA,0.01,815.00,VWS V14.01,2013-08-10 21:05:00,
2013-08-10 17:08:00,79.4,53.0,29.92,West,280,3.0,9.0,40,0.00,,BKN065,0.01,482.00,VWS V14.01,2013-08-10 21:08:00,
2013-08-10 17:10:00,78.3,52.7,29.93,North,0,6.0,8.0,41,0.00,,-RA,0.01,238.00,VWS V14.01,2013-08-10 21:10:00,
2013-08-10 17:13:00,79.2,54.2,29.92,WSW,247,3.0,5.0,42,0.00,,BKN065,0.01,486.00,VWS V14.01,2013-08-10 21:13:00,
2013-08-10 17:15:00,77.9,53.0,29.93,North,0,6.0,9.0,42,0.00,,-RA,0.01,220.00,VWS V14.01,2013-08-10 21:15:00,
2013-08-10 17:18:00,79.4,53.0,29.93,WSW,257,1.0,6.0,40,0.00,,BKN065,0.01,493.00,VWS V14.01,2013-08-10 21:18:00,
2013-08-10 17:20:00,78.1,54.4,29.93,West,267,2.0,2.0,44,0.00,,-RA,0.01,227.00,VWS V14.01,2013-08-10 21:20:00,
2013-08-10 17:23:00,79.4,54.3,29.93,SW,220,0.0,4.0,42,0.00,,BKN065,0.01,482.00,VWS V14.01,2013-08-10 21:23:00,
2013-08-10 17:25:00,78.3,52.0,29.93,WNW,282,0.0,5.0,40,0.00,,-RA,0.01,368.00,VWS V14.01,2013-08-10 21:25:00,
2013-08-10 17:28:00,79.6,54.5,29.93,WSW,257,1.0,7.0,42,0.00,,BKN065,0.01,449.00,VWS V14.01,2013-08-10 21:28:00,
2013-08-10 17:30:00,78.5,51.5,29.93,SW,233,7.0,7.0,39,0.00,,-RA,0.01,211.00,VWS V14.01,2013-08-10 21:30:00,
2013-08-10 17:33:00,79.4,54.3,29.93,SW,220,2.0,3.0,42,0.00,,BKN065,0.01,111.00,VWS V14.01,2013-08-10 21:33:00,
2013-08-10 17:35:00,78.5,52.2,29.93,WSW,254,0.0,7.0,40,0.00,,-RA,0.01,255.00,VWS V14.01,2013-08-10 21:35:00,
2013-08-10 17:38:00,79.2,54.8,29.93,SW,220,0.0,0.0,43,0.00,,BKN065,0.01,150.00,VWS V14.01,2013-08-10 21:38:00,
2013-08-10 17:40:00,78.6,54.3,29.93,WSW,254,0.0,0.0,43,0.00,,-RA,0.01,199.00,VWS V14.01,2013-08-10 21:40:00,
2013-08-10 17:43:00,78.6,53.6,29.93,NNW,339,0.0,5.0,42,0.00,,BKN065,0.01,171.00,VWS V14.01,2013-08-10 21:43:00,
2013-08-10 17:45:00,78.6,53.0,29.93,NNW,332,0.0,3.0,41,0.00,,-RA,0.01,584.00,VWS V14.01,2013-08-10 21:45:00,
2013-08-10 17:48:00,78.1,53.8,29.93,NNW,335,0.0,2.0,43,0.00,,BKN065,0.01,209.00,VWS V14.01,2013-08-10 21:48:00,
2013-08-10 17:50:00,79.0,52.0,29.93,NW,312,5.0,8.0,39,0.00,,-RA,0.01,542.00,VWS V14.01,2013-08-10 21:50:00,
2013-08-10 17:53:00,77.9,54.3,29.93,NNW,335,0.0,2.0,44,0.00,,BKN065,0.01,195.00,VWS V14.01,2013-08-10 21:53:00,
2013-08-10 17:55:00,79.2,53.5,29.93,WSW,244,0.0,2.0,41,0.00,,-RA,0.01,540.00,VWS V14.01,2013-08-10 21:55:00,
2013-08-10 17:58:00,77.9,53.6,29.93,North,0,3.0,7.0,43,0.00,,BKN065,0.01,326.00,VWS V14.01,2013-08-10 21:58:00,
2013-08-10 18:00:00,79.4,54.3,29.92,SW,236,0.0,3.0,42,0.00,,-RA,0.01,521.00,VWS V14.01,2013-08-10 22:00:00,
2013-08-10 18:03:00,77.7,54.1,29.93,NNW,336,1.0,2.0,44,0.00,,BKN075,0.01,183.00,VWS V14.01,2013-08-10 22:03:00,
2013-08-10 18:05:00,79.6,54.5,29.92,WSW,237,5.0,6.0,42,0.00,,-RA,0.01,494.00,VWS V14.01,2013-08-10 22:05:00,
2013-08-10 18:08:00,77.9,53.0,29.93,NNW,329,0.0,2.0,42,0.00,,BKN075,0.01,348.00,VWS V14.01,2013-08-10 22:08:00,
2013-08-10 18:10:00,79.4,53.7,29.92,WSW,239,5.0,8.0,41,0.00,,-RA,0.01,480.00,VWS V14.01,2013-08-10 22:10:00,
2013-08-10 18:13:00,78.3,54.0,29.93,NNW,329,0.0,0.0,43,0.00,,BKN075,0.01,313.00,VWS V14.01,2013-08-10 22:13:00,
2013-08-10 18:15:00,79.4,53.7,29.93,South,189,3.0,7.0,41,0.00,,-RA,0.01,493.00,VWS V14.01,2013-08-10 22:15:00,
2013-08-10 18:18:00,78.6,52.3,29.93,NW,309,0.0,4.0,40,0.00,,BKN075,0.01,183.00,VWS V14.01,2013-08-10 22:18:00,
2013-08-10 18:20:00,79.4,53.7,29.93,WSW,254,5.0,7.0,41,0.00,,-RA,0.01,501.00,VWS V14.01,2013-08-10 22:20:00,
2013-08-10 18:23:00,78.6,53.0,29.93,West,274,0.0,1.0,41,0.00,,BKN075,0.01,65.00,VWS V14.01,2013-08-10 22:23:00,
2013-08-10 18:25:00,79.4,54.3,29.93,SW,229,0.0,7.0,42,0.00,,-RA,0.01,433.00,VWS V14.01,2013-08-10 22:25:00,
2013-08-10 18:28:00,78.5,54.8,29.93,West,272,0.0,0.0,44,0.00,,BKN075,0.01,88.00,VWS V14.01,2013-08-10 22:28:00,
2013-08-10 18:30:00,79.4,53.0,29.93,SW,220,3.0,7.0,40,0.00,,-RA,0.01,438.00,VWS V14.01,2013-08-10 22:30:00,
2013-08-10 18:33:00,78.3,54.0,29.93,West,278,3.0,5.0,43,0.00,,BKN075,0.01,130.00,VWS V14.01,2013-08-10 22:33:00,
2013-08-10 18:35:00,79.2,54.2,29.93,SW,220,0.0,1.0,42,0.00,,-RA,0.01,106.00,VWS V14.01,2013-08-10 22:35:00,
2013-08-10 18:38:00,78.3,53.3,29.93,West,263,3.0,6.0,42,0.00,,BKN075,0.01,202.00,VWS V14.01,2013-08-10 22:38:00,
2013-08-10 18:40:00,79.0,55.2,29.93,SW,220,0.0,0.0,44,0.00,,-RA,0.01,195.00,VWS V14.01,2013-08-10 22:40:00,
2013-08-10 18:43:00,78.5,53.5,29.93,WNW,296,0.0,5.0,42,0.00,,BKN075,0.01,143.00,VWS V14.01,2013-08-10 22:43:00,
2013-08-10 18:45:00,78.5,54.8,29.93,NNW,339,0.0,0.0,44,0.00,,-RA,0.01,269.00,VWS V14.01,2013-08-10 22:45:00,
2013-08-10 18:48:00,78.1,54.4,29.93,WNW,296,0.0,3.0,44,0.00,,BKN075,0.01,95.00,VWS V14.01,2013-08-10 22:48:00,
2013-08-10 18:50:00,78.1,53.8,29.93,NNW,335,0.0,2.0,43,0.00,,-RA,0.01,169.00,VWS V14.01,2013-08-10 22:50:00,
2013-08-10 18:53:00,77.4,54.4,29.93,NW,319,3.0,3.0,45,0.00,,BKN075,0.01,114.00,VWS V14.01,2013-08-10 22:53:00,
2013-08-10 18:55:00,77.9,54.9,29.93,NNW,335,4.0,4.0,45,0.00,,-RA,0.01,164.00,VWS V14.01,2013-08-10 22:55:00,
2013-08-10 18:58:00,76.8,54.5,29.93,NW,319,0.0,3.0,46,0.00,,BKN075,0.01,97.00,VWS V14.01,2013-08-10 22:58:00,
2013-08-10 19:00:00,77.7,53.5,29.93,NNW,336,1.0,5.0,43,0.00,,-RA,0.01,201.00,VWS V14.01,2013-08-10 23:00:00,
2013-08-10 19:03:00,76.5,54.2,29.93,NW,326,0.0,2.0,46,0.00,,SCT080,0.01,35.00,VWS V14.01,2013-08-10 23:03:00,
2013-08-10 19:05:00,77.7,54.1,29.93,NNW,336,2.0,2.0,44,0.00,,-RA,0.01,359.00,VWS V14.01,2013-08-10 23:05:00,
2013-08-10 19:08:00,76.1,53.8,29.93,NW,326,0.0,0.0,46,0.00,,SCT080,0.01,46.00,VWS V14.01,2013-08-10 23:08:00,
2013-08-10 19:10:00,78.1,53.8,29.93,NNW,330,0.0,3.0,43,0.00,,-RA,0.01,348.00,VWS V14.01,2013-08-10 23:10:00,
2013-08-10 19:13:00,75.8,53.6,29.93,NW,326,2.0,2.0,46,0.00,,SCT080,0.01,39.00,VWS V14.01,2013-08-10 23:13:00,
2013-08-10 19:15:00,78.5,52.9,29.93,West,265,0.0,5.0,41,0.00,,-RA,0.01,283.00,VWS V14.01,2013-08-10 23:15:00,
2013-08-10 19:18:00,75.6,54.0,29.93,NW,326,0.0,2.0,47,0.00,,SCT080,0.01,60.00,VWS V14.01,2013-08-10 23:18:00,
2013-08-10 19:20:00,78.6,53.0,29.93,West,274,0.0,2.0,41,0.00,,-RA,0.01,164.00,VWS V14.01,2013-08-10 23:20:00,
2013-08-10 19:23:00,75.4,53.8,29.93,NW,326,0.0,0.0,47,0.00,,SCT080,0.01,39.00,VWS V14.01,2013-08-10 23:23:00,
2013-08-10 19:25:00,78.5,53.5,29.93,West,272,0.0,0.0,42,0.00,,-RA,0.01,60.00,VWS V14.01,2013-08-10 23:25:00,
2013-08-10 19:28:00,75.3,53.7,29.93,NW,326,0.0,0.0,47,0.00,,SCT080,0.01,23.00,VWS V14.01,2013-08-10 23:28:00,
2013-08-10 19:30:00,78.5,54.8,29.93,West,272,0.0,0.0,44,0.00,,-RA,0.01,137.00,VWS V14.01,2013-08-10 23:30:00,
2013-08-10 19:33:00,75.1,52.9,29.94,NW,326,0.0,0.0,46,0.00,,SCT080,0.01,19.00,VWS V14.01,2013-08-10 23:33:00,
2013-08-10 19:35:00,78.3,53.3,29.93,West,268,0.0,3.0,42,0.00,,-RA,0.01,213.00,VWS V14.01,2013-08-10 23:35:00,
2013-08-10 19:38:00,74.9,53.9,29.94,NW,326,0.0,0.0,48,0.00,,SCT080,0.01,19.00,VWS V14.01,2013-08-10 23:38:00,
2013-08-10 19:40:00,78.5,53.5,29.93,WSW,258,0.0,2.0,42,0.00,,-RA,0.01,127.00,VWS V14.01,2013-08-10 23:40:00,
2013-08-10 19:43:00,74.7,54.3,29.94,NW,326,0.0,0.0,49,0.00,,SCT080,0.01,19.00,VWS V14.01,2013-08-10 23:43:00,
2013-08-10 19:45:00,78.5,54.8,29.93,WNW,296,0.0,0.0,44,0.00,,-RA,0.01,97.00,VWS V14.01,2013-08-10 23:45:00,
2013-08-10 19:48:00,74.6,55.3,29.95,NW,326,0.0,0.0,51,0.00,,SCT080,0.01,21.00,VWS V14.01,2013-08-10 23:48:00,
2013-08-10 19:50:00,77.7,54.7,29.93,WNW,296,1.0,3.0,45,0.00,,-RA,0.01,93.00,VWS V14.01,2013-08-10 23:50:00,
2013-08-10 19:53:00,74.2,55.5,29.95,NW,326,0.0,0.0,52,0.00,,SCT080,0.01,18.00,VWS V14.01,2013-08-10 23:53:00,
2013-08-10 19:55:00,77.2,55.4,29.93,NW,319,0.0,0.0,47,0.00,,-RA,0.01,79.00,VWS V14.01,2013-08-10 23:55:00,
2013-08-10 19:58:00,73.9,55.7,29.95,NW,326,0.0,0.0,53,0.00,,SCT080,0.01,11.00,VWS V14.01,2013-08-10 23:58:00,
2013-08-10 20:00:00,76.7,54.4,29.93,NW,319,3.0,3.0,46,0.00,,-RA,0.01,48.00,VWS V14.01,2013-08-11 00:00:00,
2013-08-10 20:03:00,73.5,55.3,29.95,NW,326,0.0,0.0,53,0.00,,FEW070,0.01,9.00,VWS V14.01,2013-08-11 00:03:00,
2013-08-10 20:05:00,76.3,54.0,29.93,NW,326,0.0,2.0,46,0.00,,-RA,0.01,37.00,VWS V14.01,2013-08-11 00:05:00,
2013-08-10 20:08:00,73.2,55.1,29.95,NW,326,0.0,0.0,53,0.00,,FEW070,0.01,7.00,VWS V14.01,2013-08-11 00:08:00,
2013-08-10 20:10:00,76.0,53.8,29.93,NW,326,0.0,0.0,46,0.00,,-RA,0.01,46.00,VWS V14.01,2013-08-11 00:10:00,
2013-08-10 20:13:00,73.0,54.9,29.95,NW,326,0.0,0.0,53,0.00,,FEW070,0.01,7.00,VWS V14.01,2013-08-11 00:13:00,
2013-08-10 20:15:00,75.6,54.0,29.93,NW,326,0.0,1.0,47,0.00,,-RA,0.01,37.00,VWS V14.01,2013-08-11 00:15:00,
2013-08-10 20:18:00,72.7,55.1,29.95,NW,326,0.0,0.0,54,0.00,,FEW070,0.01,0.00,VWS V14.01,2013-08-11 00:18:00,
2013-08-10 20:20:00,75.4,53.8,29.93,NW,326,1.0,2.0,47,0.00,,-RA,0.01,55.00,VWS V14.01,2013-08-11 00:20:00,
2013-08-10 20:23:00,72.5,57.4,29.95,NW,326,0.0,0.0,59,0.00,,FEW070,0.01,0.00,VWS V14.01,2013-08-11 00:23:00,
2013-08-10 20:25:00,75.3,53.7,29.93,NW,326,0.0,0.0,47,0.00,,-RA,0.01,25.00,VWS V14.01,2013-08-11 00:25:00,
2013-08-10 20:28:00,72.0,57.4,29.95,NW,326,0.0,0.0,60,0.00,,FEW070,0.01,0.00,VWS V14.01,2013-08-11 00:28:00,
2013-08-10 20:30:00,75.1,52.9,29.94,NW,326,0.0,0.0,46,0.00,,-RA,0.01,19.00,VWS V14.01,2013-08-11 00:30:00,
2013-08-10 20:33:00,71.3,57.2,29.96,NW,326,0.0,0.0,61,0.00,,FEW070,0.01,0.00,VWS V14.01,2013-08-11 00:33:00,
2013-08-10 20:35:00,75.1,52.9,29.94,NW,326,0.0,0.0,46,0.00,,-RA,0.01,23.00,VWS V14.01,2013-08-11 00:35:00,
2013-08-10 20:38:00,70.8,56.2,29.96,NW,326,0.0,0.0,60,0.00,,FEW070,0.01,0.00,VWS V14.01,2013-08-11 00:38:00,
2013-08-10 20:40:00,74.9,53.3,29.94,NW,326,0.0,0.0,47,0.00,,-RA,0.01,21.00,VWS V14.01,2013-08-11 00:40:00,
2013-08-10 20:43:00,70.8,56.2,29.96,NW,326,0.0,0.0,60,0.00,,FEW070,0.01,0.00,VWS V14.01,2013-08-11 00:43:00,
2013-08-10 20:45:00,74.7,54.8,29.95,NW,326,0.0,0.0,50,0.00,,-RA,0.01,19.00,VWS V14.01,2013-08-11 00:45:00,
2013-08-10 20:48:00,70.6,56.1,29.96,NW,326,0.0,0.0,60,0.00,,FEW070,0.01,0.00,VWS V14.01,2013-08-11 00:48:00,
2013-08-10 20:50:00,74.4,56.2,29.95,NW,326,0.0,0.0,53,0.00,,-RA,0.01,21.00,VWS V14.01,2013-08-11 00:50:00,
2013-08-10 20:53:00,70.6,57.8,29.96,NW,326,0.0,0.0,64,0.00,,FEW070,0.01,0.00,VWS V14.01,2013-08-11 00:53:00,
2013-08-10 20:55:00,74.0,55.3,29.95,NW,326,0.0,0.0,52,0.00,,-RA,0.01,14.00,VWS V14.01,2013-08-11 00:55:00,
2013-08-10 20:58:00,70.4,58.5,29.96,NW,326,0.0,0.0,66,0.00,,FEW070,0.01,0.00,VWS V14.01,2013-08-11 00:58:00,
2013-08-10 21:00:00,73.7,55.5,29.95,NW,326,0.0,0.0,53,0.00,,-RA,0.01,9.00,VWS V14.01,2013-08-11 01:00:00,
2013-08-10 21:03:00,70.1,58.7,29.97,NW,326,0.0,0.0,67,0.00,,CLR,0.01,0.00,VWS V14.01,2013-08-11 01:03:00,
2013-08-10 21:05:00,73.3,55.2,29.95,NW,326,0.0,0.0,53,0.00,,-RA,0.01,9.00,VWS V14.01,2013-08-11 01:05:00,
2013-08-10 21:08:00,69.6,59.0,29.97,NW,326,0.0,0.0,69,0.00,,CLR,0.01,0.00,VWS V14.01,2013-08-11 01:08:00,
2013-08-10 21:10:00,73.2,55.1,29.95,NW,326,0.0,0.0,53,0.00,,-RA,0.01,7.00,VWS V14.01,2013-08-11 01:10:00,
2013-08-10 21:13:00,69.3,59.1,29.97,NW,326,0.0,0.0,70,0.00,,CLR,0.01,0.00,VWS V14.01,2013-08-11 01:13:00,
2013-08-10 21:15:00,72.8,54.7,29.95,NW,326,0.0,0.0,53,0.00,,-RA,0.01,0.00,VWS V14.01,2013-08-11 01:15:00,
2013-08-10 21:18:00,68.9,59.1,29.98,NW,326,0.0,0.0,71,0.00,,CLR,0.01,0.00,VWS V14.01,2013-08-11 01:18:00,
2013-08-10 21:20:00,72.7,56.1,29.95,NW,326,0.0,0.0,56,0.00,,-RA,0.01,0.00,VWS V14.01,2013-08-11 01:20:00,
2013-08-10 21:23:00,68.6,59.2,29.98,NW,326,0.0,0.0,72,0.00,,CLR,0.01,0.00,VWS V14.01,2013-08-11 01:23:00,
2013-08-10 21:25:00,72.3,57.2,29.95,NW,326,0.0,0.0,59,0.00,,-RA,0.01,0.00,VWS V14.01,2013-08-11 01:25:00,
2013-08-10 21:28:00,68.3,58.9,29.98,NW,326,0.0,0.0,72,0.00,,CLR,0.01,0.00,VWS V14.01,2013-08-11 01:28:00,
2013-08-10 21:30:00,71.6,57.5,29.96,NW,326,0.0,0.0,61,0.00,,-RA,0.01,0.00,VWS V14.01,2013-08-11 01:30:00,
2013-08-10 21:33:00,68.1,59.1,29.99,NW,326,0.0,0.0,73,0.00,,CLR,0.01,0.00,VWS V14.01,2013-08-11 01:33:00,
2013-08-10 21:35:00,71.1,57.4,29.96,NW,326,0.0,0.0,62,0.00,,-RA,0.01,0.00,VWS V14.01,2013-08-11 01:35:00,
2013-08-10 21:38:00,67.9,59.3,29.99,NW,326,0.0,0.0,74,0.00,,CLR,0.01,0.00,VWS V14.01,2013-08-11 01:38:00,
2013-08-10 21:40:00,70.8,56.2,29.96,NW,326,0.0,0.0,60,0.00,,-RA,0.01,0.00,VWS V14.01,2013-08-11 01:40:00,
2013-08-10 21:43:00,67.6,59.0,29.99,NW,326,0.0,0.0,74,0.00,,CLR,0.01,0.00,VWS V14.01,2013-08-11 01:43:00,
2013-08-10 21:45:00,70.6,56.1,29.96,NW,326,0.0,0.0,60,0.00,,-RA,0.01,0.00,VWS V14.01,2013-08-11 01:45:00,
2013-08-10 21:48:00,67.3,59.1,29.99,NW,326,0.0,0.0,75,0.00,,CLR,0.01,0.00,VWS V14.01,2013-08-11 01:48:00,
2013-08-10 21:50:00,70.6,57.0,29.96,NW,326,0.0,0.0,62,0.00,,-RA,0.01,0.00,VWS V14.01,2013-08-11 01:50:00,
2013-08-10 21:53:00,67.1,58.9,29.99,NW,326,0.0,0.0,75,0.00,,CLR,0.01,0.00,VWS V14.01,2013-08-11 01:53:00,
2013-08-10 21:55:00,70.4,58.1,29.96,NW,326,0.0,0.0,65,0.00,,-RA,0.01,0.00,VWS V14.01,2013-08-11 01:55:00,
2013-08-10 21:58:00,66.8,58.6,29.99,NW,326,0.0,0.0,75,0.00,,CLR,0.01,0.00,VWS V14.01,2013-08-11 01:58:00,
2013-08-10 22:00:00,70.3,58.8,29.97,NW,326,0.0,0.0,67,0.00,,-RA,0.01,0.00,VWS V14.01,2013-08-11 02:00:00,
2013-08-10 22:03:00,66.4,58.2,29.99,NW,326,0.0,0.0,75,0.00,,CLR,0.01,0.00,VWS V14.01,2013-08-11 02:03:00,
2013-08-10 22:05:00,69.9,58.9,29.97,NW,326,0.0,0.0,68,0.00,,-RA,0.01,0.00,VWS V14.01,2013-08-11 02:05:00,
2013-08-10 22:07:00,66.3,58.2,29.99,NW,326,0.0,0.0,75,0.00,,CLR,0.01,0.00,VWS V14.01,2013-08-11 02:07:00,
2013-08-10 22:10:00,69.4,58.8,29.97,NW,326,0.0,0.0,69,0.00,,-RA,0.01,0.00,VWS V14.01,2013-08-11 02:10:00,
2013-08-10 22:12:00,66.1,58.3,29.99,NW,326,0.0,0.0,76,0.00,,CLR,0.01,0.00,VWS V14.01,2013-08-11 02:12:00,
2013-08-10 22:15:00,69.1,59.3,29.98,NW,326,0.0,0.0,71,0.00,,-RA,0.01,0.00,VWS V14.01,2013-08-11 02:15:00,
2013-08-10 22:17:00,65.8,58.0,29.99,NW,326,0.0,0.0,76,0.00,,CLR,0.01,0.00,VWS V14.01,2013-08-11 02:17:00,
2013-08-10 22:20:00,68.8,59.0,29.98,NW,326,0.0,0.0,71,0.00,,-RA,0.01,0.00,VWS V14.01,2013-08-11 02:20:00,
2013-08-10 22:22:00,65.6,57.8,29.99,NW,326,0.0,0.0,76,0.00,,CLR,0.01,0.00,VWS V14.01,2013-08-11 02:22:00,
2013-08-10 22:25:00,68.4,59.0,29.98,NW,326,0.0,0.0,72,0.00,,-RA,0.01,0.00,VWS V14.01,2013-08-11 02:25:00,
2013-08-10 22:27:00,65.5,57.7,29.99,NW,326,0.0,0.0,76,0.00,,CLR,0.01,0.00,VWS V14.01,2013-08-11 02:27:00,
2013-08-10 22:30:00,68.3,58.9,29.99,NW,326,0.0,0.0,72,0.00,,-RA,0.01,0.00,VWS V14.01,2013-08-11 02:30:00,
2013-08-10 22:32:00,65.3,57.5,29.99,NW,326,0.0,0.0,76,0.00,,,0.01,0.00,VWS V14.01,2013-08-11 02:32:00,
2013-08-10 22:35:00,68.1,59.1,29.99,NW,326,0.0,0.0,73,0.00,,-RA,0.01,0.00,VWS V14.01,2013-08-11 02:35:00,
2013-08-10 22:37:00,65.3,57.9,29.99,NW,326,0.0,0.0,77,0.00,,,0.01,0.00,VWS V14.01,2013-08-11 02:37:00,
2013-08-10 22:40:00,67.8,59.2,29.99,NW,326,0.0,0.0,74,0.00,,-RA,0.01,0.00,VWS V14.01,2013-08-11 02:40:00,
2013-08-10 22:42:00,65.2,57.8,29.99,NW,326,0.0,0.0,77,0.00,,,0.01,0.00,VWS V14.01,2013-08-11 02:42:00,
2013-08-10 22:45:00,67.4,59.2,29.99,NW,326,0.0,0.0,75,0.00,,-RA,0.01,0.00,VWS V14.01,2013-08-11 02:45:00,
2013-08-10 22:47:00,65.0,57.6,29.99,NW,326,0.0,0.0,77,0.00,,,0.01,0.00,VWS V14.01,2013-08-11 02:47:00,
2013-08-10 22:50:00,67.3,59.1,29.99,NW,326,0.0,0.0,75,0.00,,-RA,0.01,0.00,VWS V14.01,2013-08-11 02:50:00,
2013-08-10 22:53:00,65.0,57.6,29.99,NW,326,0.0,0.0,77,0.00,,,0.01,0.00,VWS V14.01,2013-08-11 02:53:00,
2013-08-10 22:55:00,66.9,58.7,29.99,NW,326,0.0,0.0,75,0.00,,-RA,0.01,0.00,VWS V14.01,2013-08-11 02:55:00,
2013-08-10 22:58:00,65.0,57.6,29.99,NW,326,0.0,0.0,77,0.00,,,0.01,0.00,VWS V14.01,2013-08-11 02:58:00,
2013-08-10 23:00:00,66.6,58.4,29.99,NW,326,0.0,0.0,75,0.00,,-RA,0.01,0.00,VWS V14.01,2013-08-11 03:00:00,
2013-08-10 23:03:00,64.8,57.4,30.00,NW,326,0.0,0.0,77,0.00,,CLR,0.01,0.00,VWS V14.01,2013-08-11 03:03:00,
2013-08-10 23:05:00,66.3,58.2,29.99,NW,326,0.0,0.0,75,0.00,,-RA,0.01,0.00,VWS V14.01,2013-08-11 03:05:00,
2013-08-10 23:08:00,64.7,57.3,30.00,NW,326,0.0,0.0,77,0.00,,CLR,0.01,0.00,VWS V14.01,2013-08-11 03:08:00,
2013-08-10 23:10:00,66.1,58.3,29.99,NW,326,0.0,0.0,76,0.00,,-RA,0.01,0.00,VWS V14.01,2013-08-11 03:10:00,
2013-08-10 23:13:00,64.3,57.3,30.00,NW,326,0.0,0.0,78,0.00,,CLR,0.01,0.00,VWS V14.01,2013-08-11 03:13:00,
2013-08-10 23:15:00,66.0,58.2,29.99,NW,326,0.0,0.0,76,0.00,,-RA,0.01,0.00,VWS V14.01,2013-08-11 03:15:00,
2013-08-10 23:18:00,64.2,57.2,30.00,NW,326,0.0,0.0,78,0.00,,CLR,0.01,0.00,VWS V14.01,2013-08-11 03:18:00,
2013-08-10 23:20:00,65.6,57.8,29.99,NW,326,0.0,0.0,76,0.00,,-RA,0.01,0.00,VWS V14.01,2013-08-11 03:20:00,
2013-08-10 23:23:00,64.0,57.0,30.00,NW,326,0.0,0.0,78,0.00,,CLR,0.01,0.00,VWS V14.01,2013-08-11 03:23:00,
2013-08-10 23:25:00,65.5,57.7,29.99,NW,326,0.0,0.0,76,0.00,,-RA,0.01,0.00,VWS V14.01,2013-08-11 03:25:00,
2013-08-10 23:28:00,63.7,56.7,30.00,NW,326,0.0,0.0,78,0.00,,CLR,0.01,0.00,VWS V14.01,2013-08-11 03:28:00,
2013-08-10 23:30:00,65.5,57.7,29.99,NW,326,0.0,0.0,76,0.00,,-RA,0.01,0.00,VWS V14.01,2013-08-11 03:30:00,
2013-08-10 23:33:00,63.5,56.5,30.00,NW,326,0.0,0.0,78,0.00,,,0.01,0.00,VWS V14.01,2013-08-11 03:33:00,
2013-08-10 23:35:00,65.3,57.9,29.99,NW,326,0.0,0.0,77,0.00,,-RA,0.01,0.00,VWS V14.01,2013-08-11 03:35:00,
2013-08-10 23:38:00,63.4,56.4,30.00,NW,326,0.0,0.0,78,0.00,,,0.01,0.00,VWS V14.01,2013-08-11 03:38:00,
2013-08-10 23:40:00,65.2,57.8,29.99,NW,326,0.0,0.0,77,0.00,,-RA,0.01,0.00,VWS V14.01,2013-08-11 03:40:00,
2013-08-10 23:43:00,63.2,56.2,30.00,NW,326,0.0,0.0,78,0.00,,,0.01,0.00,VWS V14.01,2013-08-11 03:43:00,
2013-08-10 23:45:00,65.0,57.6,29.99,NW,326,0.0,0.0,77,0.00,,-RA,0.01,0.00,VWS V14.01,2013-08-11 03:45:00,
2013-08-10 23:48:00,63.1,56.1,30.00,NW,326,0.0,0.0,78,0.00,,,0.01,0.00,VWS V14.01,2013-08-11 03:48:00,
2013-08-10 23:50:00,65.0,57.6,29.99,NW,326,0.0,0.0,77,0.00,,-RA,0.01,0.00,VWS V14.01,2013-08-11 03:50:00,
2013-08-10 23:53:00,62.7,55.8,30.00,NW,326,0.0,0.0,78,0.00,,,0.01,0.00,VWS V14.01,2013-08-11 03:53:00,
2013-08-10 23:55:00,65.0,57.6,29.99,NW,326,0.0,0.0,77,0.00,,-RA,0.01,0.00,VWS V14.01,2013-08-11 03:55:00,
2013-08-10 23:59:00,62.7,55.8,30.00,NW,326,0.0,0.0,78,0.00,,,0.01,0.00,VWS V14.01,2013-08-11 03:59:00,